<?xml version="1.0" encoding="UTF-8" standalone="no" ?>
<gpx xmlns="http://www.topografix.com/GPX/1/1" xmlns:xsi="http://www.w3.org/2001/XMLSchema-instance" xsi:schemaLocation="http://www.topografix.com/GPX/1/1 http://www.topografix.com/GPX/1/1/gpx.xsd" version="1.1" creator="VisuGPX - https://www.visugpx.com">
  <metadata>
    <name>jeudi 21 juillet  2016</name>
    <desc><![CDATA[pont du casse _ jourdas- castagné]]></desc>
  </metadata>
  <wpt lat="44.2493" lon="0.69832">
    <ele>149.8046875</ele>
    <name><![CDATA[Castagné]]></name>
    <desc><![CDATA[Castagné]]></desc>
    <cmt><![CDATA[Castagné]]></cmt>
  </wpt>
  <wpt lat="44.25476" lon="0.70522">
    <ele>167</ele>
    <name><![CDATA[jeudi  21 juillet 2016]]></name>
  </wpt>
  <wpt lat="44.2557" lon="0.69997">
    <ele>112.82421875</ele>
    <name><![CDATA[Lestaque]]></name>
    <desc><![CDATA[Lestaque]]></desc>
    <cmt><![CDATA[Lestaque]]></cmt>
  </wpt>
  <wpt lat="44.24044" lon="0.68731">
    <ele>158.2578125</ele>
    <name><![CDATA[Maison Neuve]]></name>
    <desc><![CDATA[Maison Neuve]]></desc>
    <cmt><![CDATA[Maison Neuve]]></cmt>
  </wpt>
  <wpt lat="44.23757" lon="0.68261">
    <ele>108.9375</ele>
    <name><![CDATA[Marche Bas]]></name>
    <desc><![CDATA[Marche Bas]]></desc>
    <cmt><![CDATA[Marche Bas]]></cmt>
  </wpt>
  <wpt lat="44.24139" lon="0.69941">
    <ele>105.73828125</ele>
    <name><![CDATA[Pepelat]]></name>
    <desc><![CDATA[Pepelat]]></desc>
    <cmt><![CDATA[Pepelat]]></cmt>
  </wpt>
  <wpt lat="44.24282" lon="0.69263">
    <ele>154.0078125</ele>
    <name><![CDATA[Serres]]></name>
    <desc><![CDATA[Serres]]></desc>
    <cmt><![CDATA[Serres]]></cmt>
  </wpt>
  <trk>
    <name><![CDATA[Tracé 003]]></name>
    <trkseg>
      <trkpt lat="44.23375" lon="0.68223">
        <ele>62.62</ele>
        <time>2016-07-21T06:36:26Z</time>
      </trkpt>
      <trkpt lat="44.23378" lon="0.6821">
        <ele>62.62</ele>
        <time>2016-07-21T06:36:36Z</time>
      </trkpt>
      <trkpt lat="44.23386" lon="0.682">
        <ele>62.62</ele>
        <time>2016-07-21T06:36:46Z</time>
      </trkpt>
      <trkpt lat="44.23394" lon="0.68193">
        <ele>62.62</ele>
        <time>2016-07-21T06:36:55Z</time>
      </trkpt>
      <trkpt lat="44.23402" lon="0.68185">
        <ele>63.1</ele>
        <time>2016-07-21T06:37:05Z</time>
      </trkpt>
      <trkpt lat="44.2341" lon="0.68174">
        <ele>64.07</ele>
        <time>2016-07-21T06:37:17Z</time>
      </trkpt>
      <trkpt lat="44.2342" lon="0.68166">
        <ele>65.03</ele>
        <time>2016-07-21T06:37:29Z</time>
      </trkpt>
      <trkpt lat="44.23432" lon="0.68159">
        <ele>65.99</ele>
        <time>2016-07-21T06:37:42Z</time>
      </trkpt>
      <trkpt lat="44.23441" lon="0.68154">
        <ele>66.47</ele>
        <time>2016-07-21T06:37:53Z</time>
      </trkpt>
      <trkpt lat="44.23449" lon="0.68148">
        <ele>67.43</ele>
        <time>2016-07-21T06:38:01Z</time>
      </trkpt>
      <trkpt lat="44.23458" lon="0.68144">
        <ele>68.39</ele>
        <time>2016-07-21T06:38:12Z</time>
      </trkpt>
      <trkpt lat="44.23468" lon="0.68139">
        <ele>69.83</ele>
        <time>2016-07-21T06:38:26Z</time>
      </trkpt>
      <trkpt lat="44.23479" lon="0.68137">
        <ele>70.79</ele>
        <time>2016-07-21T06:38:39Z</time>
      </trkpt>
      <trkpt lat="44.23492" lon="0.68142">
        <ele>71.76</ele>
        <time>2016-07-21T06:38:51Z</time>
      </trkpt>
      <trkpt lat="44.23501" lon="0.68148">
        <ele>71.76</ele>
        <time>2016-07-21T06:39:02Z</time>
      </trkpt>
      <trkpt lat="44.23513" lon="0.68144">
        <ele>73.2</ele>
        <time>2016-07-21T06:39:15Z</time>
      </trkpt>
      <trkpt lat="44.2352" lon="0.68153">
        <ele>74.16</ele>
        <time>2016-07-21T06:39:25Z</time>
      </trkpt>
      <trkpt lat="44.23527" lon="0.68162">
        <ele>75.12</ele>
        <time>2016-07-21T06:39:35Z</time>
      </trkpt>
      <trkpt lat="44.23535" lon="0.68172">
        <ele>75.6</ele>
        <time>2016-07-21T06:39:46Z</time>
      </trkpt>
      <trkpt lat="44.23544" lon="0.68181">
        <ele>76.56</ele>
        <time>2016-07-21T06:39:57Z</time>
      </trkpt>
      <trkpt lat="44.23551" lon="0.68189">
        <ele>76.56</ele>
        <time>2016-07-21T06:40:07Z</time>
      </trkpt>
      <trkpt lat="44.23557" lon="0.68199">
        <ele>77.04</ele>
        <time>2016-07-21T06:40:17Z</time>
      </trkpt>
      <trkpt lat="44.23564" lon="0.68208">
        <ele>77.52</ele>
        <time>2016-07-21T06:40:27Z</time>
      </trkpt>
      <trkpt lat="44.23573" lon="0.68216">
        <ele>78.48</ele>
        <time>2016-07-21T06:40:37Z</time>
      </trkpt>
      <trkpt lat="44.23582" lon="0.68224">
        <ele>78.97</ele>
        <time>2016-07-21T06:40:48Z</time>
      </trkpt>
      <trkpt lat="44.23594" lon="0.68218">
        <ele>78.97</ele>
        <time>2016-07-21T06:40:57Z</time>
      </trkpt>
      <trkpt lat="44.23604" lon="0.68214">
        <ele>79.45</ele>
        <time>2016-07-21T06:41:05Z</time>
      </trkpt>
      <trkpt lat="44.23614" lon="0.68209">
        <ele>79.45</ele>
        <time>2016-07-21T06:41:16Z</time>
      </trkpt>
      <trkpt lat="44.23623" lon="0.68204">
        <ele>79.45</ele>
        <time>2016-07-21T06:41:25Z</time>
      </trkpt>
      <trkpt lat="44.23633" lon="0.68198">
        <ele>79.45</ele>
        <time>2016-07-21T06:41:34Z</time>
      </trkpt>
      <trkpt lat="44.23641" lon="0.68189">
        <ele>79.93</ele>
        <time>2016-07-21T06:41:45Z</time>
      </trkpt>
      <trkpt lat="44.2365" lon="0.68178">
        <ele>80.41</ele>
        <time>2016-07-21T06:41:56Z</time>
      </trkpt>
      <trkpt lat="44.23658" lon="0.68169">
        <ele>81.85</ele>
        <time>2016-07-21T06:42:11Z</time>
      </trkpt>
      <trkpt lat="44.23688" lon="0.68165">
        <ele>88.1</ele>
        <time>2016-07-21T06:42:57Z</time>
      </trkpt>
      <trkpt lat="44.237" lon="0.68165">
        <ele>89.54</ele>
        <time>2016-07-21T06:43:10Z</time>
      </trkpt>
      <trkpt lat="44.23713" lon="0.68176">
        <ele>92.42</ele>
        <time>2016-07-21T06:43:38Z</time>
      </trkpt>
      <trkpt lat="44.23719" lon="0.68189">
        <ele>93.39</ele>
        <time>2016-07-21T06:43:51Z</time>
      </trkpt>
      <trkpt lat="44.23721" lon="0.68205">
        <ele>94.83</ele>
        <time>2016-07-21T06:44:02Z</time>
      </trkpt>
      <trkpt lat="44.23723" lon="0.6822">
        <ele>95.31</ele>
        <time>2016-07-21T06:44:14Z</time>
      </trkpt>
      <trkpt lat="44.23726" lon="0.68235">
        <ele>96.75</ele>
        <time>2016-07-21T06:44:26Z</time>
      </trkpt>
      <trkpt lat="44.23728" lon="0.6825">
        <ele>98.19</ele>
        <time>2016-07-21T06:44:39Z</time>
      </trkpt>
      <trkpt lat="44.2373" lon="0.68264">
        <ele>98.67</ele>
        <time>2016-07-21T06:44:53Z</time>
      </trkpt>
      <trkpt lat="44.23732" lon="0.68281">
        <ele>100.6</ele>
        <time>2016-07-21T06:45:07Z</time>
      </trkpt>
      <trkpt lat="44.23735" lon="0.68294">
        <ele>101.56</ele>
        <time>2016-07-21T06:45:21Z</time>
      </trkpt>
      <trkpt lat="44.23737" lon="0.68308">
        <ele>103</ele>
        <time>2016-07-21T06:45:33Z</time>
      </trkpt>
      <trkpt lat="44.23744" lon="0.6832">
        <ele>103.96</ele>
        <time>2016-07-21T06:45:45Z</time>
      </trkpt>
      <trkpt lat="44.23754" lon="0.68327">
        <ele>104.92</ele>
        <time>2016-07-21T06:45:58Z</time>
      </trkpt>
      <trkpt lat="44.23763" lon="0.68333">
        <ele>106.84</ele>
        <time>2016-07-21T06:46:12Z</time>
      </trkpt>
      <trkpt lat="44.2377" lon="0.68343">
        <ele>108.29</ele>
        <time>2016-07-21T06:46:27Z</time>
      </trkpt>
      <trkpt lat="44.23801" lon="0.68356">
        <ele>113.09</ele>
        <time>2016-07-21T06:47:11Z</time>
      </trkpt>
      <trkpt lat="44.23818" lon="0.68355">
        <ele>115.98</ele>
        <time>2016-07-21T06:47:33Z</time>
      </trkpt>
      <trkpt lat="44.23853" lon="0.68378">
        <ele>123.19</ele>
        <time>2016-07-21T06:48:43Z</time>
      </trkpt>
      <trkpt lat="44.23859" lon="0.68416">
        <ele>130.88</ele>
        <time>2016-07-21T06:49:48Z</time>
      </trkpt>
      <trkpt lat="44.23897" lon="0.68468">
        <ele>140.01</ele>
        <time>2016-07-21T06:51:29Z</time>
      </trkpt>
      <trkpt lat="44.23905" lon="0.68478">
        <ele>140.01</ele>
        <time>2016-07-21T06:51:42Z</time>
      </trkpt>
      <trkpt lat="44.23919" lon="0.68492">
        <ele>140.49</ele>
        <time>2016-07-21T06:52:04Z</time>
      </trkpt>
      <trkpt lat="44.23931" lon="0.68524">
        <ele>141.45</ele>
        <time>2016-07-21T06:52:40Z</time>
      </trkpt>
      <trkpt lat="44.23934" lon="0.68547">
        <ele>140.01</ele>
        <time>2016-07-21T06:52:56Z</time>
      </trkpt>
      <trkpt lat="44.23939" lon="0.68565">
        <ele>140.01</ele>
        <time>2016-07-21T06:53:10Z</time>
      </trkpt>
      <trkpt lat="44.23946" lon="0.68578">
        <ele>140.01</ele>
        <time>2016-07-21T06:53:22Z</time>
      </trkpt>
      <trkpt lat="44.23959" lon="0.68596">
        <ele>141.93</ele>
        <time>2016-07-21T06:53:42Z</time>
      </trkpt>
      <trkpt lat="44.23967" lon="0.68608">
        <ele>143.37</ele>
        <time>2016-07-21T06:53:55Z</time>
      </trkpt>
      <trkpt lat="44.23977" lon="0.68619">
        <ele>144.34</ele>
        <time>2016-07-21T06:54:08Z</time>
      </trkpt>
      <trkpt lat="44.23983" lon="0.6863">
        <ele>144.82</ele>
        <time>2016-07-21T06:54:21Z</time>
      </trkpt>
      <trkpt lat="44.23988" lon="0.68642">
        <ele>145.3</ele>
        <time>2016-07-21T06:54:32Z</time>
      </trkpt>
      <trkpt lat="44.23993" lon="0.68654">
        <ele>145.78</ele>
        <time>2016-07-21T06:54:42Z</time>
      </trkpt>
      <trkpt lat="44.23997" lon="0.68667">
        <ele>146.26</ele>
        <time>2016-07-21T06:54:52Z</time>
      </trkpt>
      <trkpt lat="44.24002" lon="0.68679">
        <ele>146.74</ele>
        <time>2016-07-21T06:55:03Z</time>
      </trkpt>
      <trkpt lat="44.24006" lon="0.6869">
        <ele>147.22</ele>
        <time>2016-07-21T06:55:13Z</time>
      </trkpt>
      <trkpt lat="44.24011" lon="0.68703">
        <ele>147.7</ele>
        <time>2016-07-21T06:55:23Z</time>
      </trkpt>
      <trkpt lat="44.24017" lon="0.68714">
        <ele>148.18</ele>
        <time>2016-07-21T06:55:34Z</time>
      </trkpt>
      <trkpt lat="44.24023" lon="0.68725">
        <ele>148.66</ele>
        <time>2016-07-21T06:55:45Z</time>
      </trkpt>
      <trkpt lat="44.24029" lon="0.68736">
        <ele>149.62</ele>
        <time>2016-07-21T06:55:56Z</time>
      </trkpt>
      <trkpt lat="44.24035" lon="0.68747">
        <ele>149.62</ele>
        <time>2016-07-21T06:56:06Z</time>
      </trkpt>
      <trkpt lat="44.24041" lon="0.68757">
        <ele>150.1</ele>
        <time>2016-07-21T06:56:17Z</time>
      </trkpt>
      <trkpt lat="44.24048" lon="0.68768">
        <ele>150.58</ele>
        <time>2016-07-21T06:56:27Z</time>
      </trkpt>
      <trkpt lat="44.24054" lon="0.68779">
        <ele>151.06</ele>
        <time>2016-07-21T06:56:38Z</time>
      </trkpt>
      <trkpt lat="44.24062" lon="0.6879">
        <ele>151.54</ele>
        <time>2016-07-21T06:56:49Z</time>
      </trkpt>
      <trkpt lat="44.24069" lon="0.68799">
        <ele>151.54</ele>
        <time>2016-07-21T06:57:00Z</time>
      </trkpt>
      <trkpt lat="44.24076" lon="0.6881">
        <ele>152.51</ele>
        <time>2016-07-21T06:57:10Z</time>
      </trkpt>
      <trkpt lat="44.24083" lon="0.6882">
        <ele>152.99</ele>
        <time>2016-07-21T06:57:19Z</time>
      </trkpt>
      <trkpt lat="44.24092" lon="0.68827">
        <ele>153.95</ele>
        <time>2016-07-21T06:57:29Z</time>
      </trkpt>
      <trkpt lat="44.241" lon="0.68833">
        <ele>154.43</ele>
        <time>2016-07-21T06:57:38Z</time>
      </trkpt>
      <trkpt lat="44.24108" lon="0.68839">
        <ele>154.91</ele>
        <time>2016-07-21T06:57:48Z</time>
      </trkpt>
      <trkpt lat="44.24116" lon="0.68848">
        <ele>155.87</ele>
        <time>2016-07-21T06:57:58Z</time>
      </trkpt>
      <trkpt lat="44.24124" lon="0.68856">
        <ele>156.35</ele>
        <time>2016-07-21T06:58:08Z</time>
      </trkpt>
      <trkpt lat="44.24131" lon="0.68864">
        <ele>157.31</ele>
        <time>2016-07-21T06:58:18Z</time>
      </trkpt>
      <trkpt lat="44.2414" lon="0.6887">
        <ele>158.27</ele>
        <time>2016-07-21T06:58:29Z</time>
      </trkpt>
      <trkpt lat="44.24149" lon="0.68879">
        <ele>158.75</ele>
        <time>2016-07-21T06:58:41Z</time>
      </trkpt>
      <trkpt lat="44.24157" lon="0.68887">
        <ele>159.24</ele>
        <time>2016-07-21T06:58:52Z</time>
      </trkpt>
      <trkpt lat="44.24165" lon="0.68894">
        <ele>160.2</ele>
        <time>2016-07-21T06:59:02Z</time>
      </trkpt>
      <trkpt lat="44.24174" lon="0.68901">
        <ele>161.16</ele>
        <time>2016-07-21T06:59:12Z</time>
      </trkpt>
      <trkpt lat="44.24182" lon="0.68907">
        <ele>161.64</ele>
        <time>2016-07-21T06:59:21Z</time>
      </trkpt>
      <trkpt lat="44.24191" lon="0.68914">
        <ele>162.12</ele>
        <time>2016-07-21T06:59:31Z</time>
      </trkpt>
      <trkpt lat="44.24201" lon="0.6892">
        <ele>162.6</ele>
        <time>2016-07-21T06:59:41Z</time>
      </trkpt>
      <trkpt lat="44.24209" lon="0.68926">
        <ele>163.08</ele>
        <time>2016-07-21T06:59:49Z</time>
      </trkpt>
      <trkpt lat="44.24218" lon="0.68931">
        <ele>163.08</ele>
        <time>2016-07-21T06:59:59Z</time>
      </trkpt>
      <trkpt lat="44.24227" lon="0.68938">
        <ele>161.64</ele>
        <time>2016-07-21T07:00:09Z</time>
      </trkpt>
      <trkpt lat="44.24236" lon="0.68943">
        <ele>160.68</ele>
        <time>2016-07-21T07:00:20Z</time>
      </trkpt>
      <trkpt lat="44.24246" lon="0.68949">
        <ele>160.2</ele>
        <time>2016-07-21T07:00:31Z</time>
      </trkpt>
      <trkpt lat="44.24254" lon="0.68954">
        <ele>158.75</ele>
        <time>2016-07-21T07:00:41Z</time>
      </trkpt>
      <trkpt lat="44.24262" lon="0.6896">
        <ele>157.79</ele>
        <time>2016-07-21T07:00:50Z</time>
      </trkpt>
      <trkpt lat="44.24269" lon="0.68968">
        <ele>157.79</ele>
        <time>2016-07-21T07:00:59Z</time>
      </trkpt>
      <trkpt lat="44.24277" lon="0.68976">
        <ele>156.83</ele>
        <time>2016-07-21T07:01:09Z</time>
      </trkpt>
      <trkpt lat="44.24283" lon="0.68983">
        <ele>155.87</ele>
        <time>2016-07-21T07:01:17Z</time>
      </trkpt>
      <trkpt lat="44.2429" lon="0.68989">
        <ele>155.39</ele>
        <time>2016-07-21T07:01:26Z</time>
      </trkpt>
      <trkpt lat="44.24298" lon="0.68995">
        <ele>154.43</ele>
        <time>2016-07-21T07:01:34Z</time>
      </trkpt>
      <trkpt lat="44.24306" lon="0.69001">
        <ele>153.95</ele>
        <time>2016-07-21T07:01:43Z</time>
      </trkpt>
      <trkpt lat="44.24314" lon="0.69008">
        <ele>153.47</ele>
        <time>2016-07-21T07:01:51Z</time>
      </trkpt>
      <trkpt lat="44.24321" lon="0.69016">
        <ele>152.99</ele>
        <time>2016-07-21T07:02:00Z</time>
      </trkpt>
      <trkpt lat="44.2433" lon="0.69023">
        <ele>152.99</ele>
        <time>2016-07-21T07:02:09Z</time>
      </trkpt>
      <trkpt lat="44.24338" lon="0.69029">
        <ele>152.51</ele>
        <time>2016-07-21T07:02:18Z</time>
      </trkpt>
      <trkpt lat="44.24347" lon="0.69035">
        <ele>152.99</ele>
        <time>2016-07-21T07:02:27Z</time>
      </trkpt>
      <trkpt lat="44.24355" lon="0.69043">
        <ele>152.99</ele>
        <time>2016-07-21T07:02:36Z</time>
      </trkpt>
      <trkpt lat="44.24362" lon="0.69048">
        <ele>152.51</ele>
        <time>2016-07-21T07:02:44Z</time>
      </trkpt>
      <trkpt lat="44.24371" lon="0.69055">
        <ele>152.51</ele>
        <time>2016-07-21T07:02:54Z</time>
      </trkpt>
      <trkpt lat="44.2438" lon="0.69064">
        <ele>152.51</ele>
        <time>2016-07-21T07:03:04Z</time>
      </trkpt>
      <trkpt lat="44.24388" lon="0.69074">
        <ele>152.51</ele>
        <time>2016-07-21T07:03:14Z</time>
      </trkpt>
      <trkpt lat="44.24396" lon="0.69084">
        <ele>152.51</ele>
        <time>2016-07-21T07:03:23Z</time>
      </trkpt>
      <trkpt lat="44.24404" lon="0.69092">
        <ele>152.51</ele>
        <time>2016-07-21T07:03:32Z</time>
      </trkpt>
      <trkpt lat="44.24415" lon="0.69099">
        <ele>152.51</ele>
        <time>2016-07-21T07:03:42Z</time>
      </trkpt>
      <trkpt lat="44.24425" lon="0.69103">
        <ele>152.51</ele>
        <time>2016-07-21T07:03:51Z</time>
      </trkpt>
      <trkpt lat="44.24435" lon="0.6911">
        <ele>152.51</ele>
        <time>2016-07-21T07:04:01Z</time>
      </trkpt>
      <trkpt lat="44.24447" lon="0.69103">
        <ele>154.43</ele>
        <time>2016-07-21T07:05:26Z</time>
      </trkpt>
      <trkpt lat="44.24455" lon="0.6909">
        <ele>153.47</ele>
        <time>2016-07-21T07:05:53Z</time>
      </trkpt>
      <trkpt lat="44.24459" lon="0.69079">
        <ele>152.51</ele>
        <time>2016-07-21T07:06:08Z</time>
      </trkpt>
      <trkpt lat="44.24454" lon="0.69064">
        <ele>151.54</ele>
        <time>2016-07-21T07:06:20Z</time>
      </trkpt>
      <trkpt lat="44.24448" lon="0.69053">
        <ele>150.58</ele>
        <time>2016-07-21T07:06:31Z</time>
      </trkpt>
      <trkpt lat="44.24462" lon="0.69039">
        <ele>148.18</ele>
        <time>2016-07-21T07:06:51Z</time>
      </trkpt>
      <trkpt lat="44.2453" lon="0.69041">
        <ele>133.76</ele>
        <time>2016-07-21T07:08:25Z</time>
      </trkpt>
      <trkpt lat="44.24535" lon="0.69018">
        <ele>130.88</ele>
        <time>2016-07-21T07:08:41Z</time>
      </trkpt>
      <trkpt lat="44.2454" lon="0.69006">
        <ele>128.47</ele>
        <time>2016-07-21T07:08:55Z</time>
      </trkpt>
      <trkpt lat="44.24548" lon="0.68996">
        <ele>127.03</ele>
        <time>2016-07-21T07:09:08Z</time>
      </trkpt>
      <trkpt lat="44.24557" lon="0.68984">
        <ele>126.07</ele>
        <time>2016-07-21T07:09:22Z</time>
      </trkpt>
      <trkpt lat="44.24567" lon="0.68974">
        <ele>125.59</ele>
        <time>2016-07-21T07:09:33Z</time>
      </trkpt>
      <trkpt lat="44.24598" lon="0.68948">
        <ele>124.63</ele>
        <time>2016-07-21T07:10:09Z</time>
      </trkpt>
      <trkpt lat="44.24609" lon="0.6894">
        <ele>124.15</ele>
        <time>2016-07-21T07:10:21Z</time>
      </trkpt>
      <trkpt lat="44.2462" lon="0.68933">
        <ele>122.71</ele>
        <time>2016-07-21T07:10:33Z</time>
      </trkpt>
      <trkpt lat="44.24628" lon="0.68921">
        <ele>120.78</ele>
        <time>2016-07-21T07:10:47Z</time>
      </trkpt>
      <trkpt lat="44.2462" lon="0.68906">
        <ele>117.9</ele>
        <time>2016-07-21T07:11:01Z</time>
      </trkpt>
      <trkpt lat="44.24595" lon="0.68916">
        <ele>115.98</ele>
        <time>2016-07-21T07:11:29Z</time>
      </trkpt>
      <trkpt lat="44.24583" lon="0.68919">
        <ele>115.98</ele>
        <time>2016-07-21T07:11:42Z</time>
      </trkpt>
      <trkpt lat="44.24568" lon="0.6892">
        <ele>113.57</ele>
        <time>2016-07-21T07:12:00Z</time>
      </trkpt>
      <trkpt lat="44.24554" lon="0.68914">
        <ele>111.65</ele>
        <time>2016-07-21T07:12:15Z</time>
      </trkpt>
      <trkpt lat="44.24536" lon="0.68906">
        <ele>108.77</ele>
        <time>2016-07-21T07:12:40Z</time>
      </trkpt>
      <trkpt lat="44.24524" lon="0.689">
        <ele>106.84</ele>
        <time>2016-07-21T07:12:55Z</time>
      </trkpt>
      <trkpt lat="44.24517" lon="0.68885">
        <ele>105.4</ele>
        <time>2016-07-21T07:13:16Z</time>
      </trkpt>
      <trkpt lat="44.24522" lon="0.68857">
        <ele>103.96</ele>
        <time>2016-07-21T07:13:45Z</time>
      </trkpt>
      <trkpt lat="44.24526" lon="0.6883">
        <ele>102.52</ele>
        <time>2016-07-21T07:14:06Z</time>
      </trkpt>
      <trkpt lat="44.24531" lon="0.68805">
        <ele>100.6</ele>
        <time>2016-07-21T07:14:30Z</time>
      </trkpt>
      <trkpt lat="44.24546" lon="0.68779">
        <ele>97.23</ele>
        <time>2016-07-21T07:15:04Z</time>
      </trkpt>
      <trkpt lat="44.2456" lon="0.68758">
        <ele>94.35</ele>
        <time>2016-07-21T07:15:39Z</time>
      </trkpt>
      <trkpt lat="44.24574" lon="0.68738">
        <ele>91.94</ele>
        <time>2016-07-21T07:16:05Z</time>
      </trkpt>
      <trkpt lat="44.24585" lon="0.68725">
        <ele>90.02</ele>
        <time>2016-07-21T07:16:23Z</time>
      </trkpt>
      <trkpt lat="44.24597" lon="0.68709">
        <ele>88.1</ele>
        <time>2016-07-21T07:16:46Z</time>
      </trkpt>
      <trkpt lat="44.24612" lon="0.68688">
        <ele>85.69</ele>
        <time>2016-07-21T07:17:17Z</time>
      </trkpt>
      <trkpt lat="44.24624" lon="0.68672">
        <ele>84.73</ele>
        <time>2016-07-21T07:17:36Z</time>
      </trkpt>
      <trkpt lat="44.24637" lon="0.68636">
        <ele>82.33</ele>
        <time>2016-07-21T07:18:11Z</time>
      </trkpt>
      <trkpt lat="44.24641" lon="0.68615">
        <ele>80.89</ele>
        <time>2016-07-21T07:18:27Z</time>
      </trkpt>
      <trkpt lat="44.24647" lon="0.6859">
        <ele>78.97</ele>
        <time>2016-07-21T07:18:53Z</time>
      </trkpt>
      <trkpt lat="44.24651" lon="0.68574">
        <ele>78</ele>
        <time>2016-07-21T07:19:06Z</time>
      </trkpt>
      <trkpt lat="44.24654" lon="0.68558">
        <ele>77.04</ele>
        <time>2016-07-21T07:19:18Z</time>
      </trkpt>
      <trkpt lat="44.24656" lon="0.68542">
        <ele>76.08</ele>
        <time>2016-07-21T07:19:30Z</time>
      </trkpt>
      <trkpt lat="44.24655" lon="0.6853">
        <ele>75.12</ele>
        <time>2016-07-21T07:19:39Z</time>
      </trkpt>
      <trkpt lat="44.24655" lon="0.68514">
        <ele>74.64</ele>
        <time>2016-07-21T07:19:50Z</time>
      </trkpt>
      <trkpt lat="44.24654" lon="0.68501">
        <ele>73.68</ele>
        <time>2016-07-21T07:20:00Z</time>
      </trkpt>
      <trkpt lat="44.24652" lon="0.68486">
        <ele>72.72</ele>
        <time>2016-07-21T07:20:11Z</time>
      </trkpt>
      <trkpt lat="44.24649" lon="0.68471">
        <ele>72.24</ele>
        <time>2016-07-21T07:20:21Z</time>
      </trkpt>
      <trkpt lat="44.24646" lon="0.68457">
        <ele>71.27</ele>
        <time>2016-07-21T07:20:30Z</time>
      </trkpt>
      <trkpt lat="44.24645" lon="0.68442">
        <ele>70.79</ele>
        <time>2016-07-21T07:20:40Z</time>
      </trkpt>
      <trkpt lat="44.24646" lon="0.68426">
        <ele>70.31</ele>
        <time>2016-07-21T07:20:50Z</time>
      </trkpt>
      <trkpt lat="44.2465" lon="0.68414">
        <ele>70.31</ele>
        <time>2016-07-21T07:20:59Z</time>
      </trkpt>
      <trkpt lat="44.24657" lon="0.68404">
        <ele>70.31</ele>
        <time>2016-07-21T07:21:10Z</time>
      </trkpt>
      <trkpt lat="44.24668" lon="0.68397">
        <ele>69.83</ele>
        <time>2016-07-21T07:21:21Z</time>
      </trkpt>
      <trkpt lat="44.2468" lon="0.68395">
        <ele>69.83</ele>
        <time>2016-07-21T07:21:32Z</time>
      </trkpt>
      <trkpt lat="44.24691" lon="0.68394">
        <ele>69.83</ele>
        <time>2016-07-21T07:21:44Z</time>
      </trkpt>
      <trkpt lat="44.247" lon="0.6839">
        <ele>69.83</ele>
        <time>2016-07-21T07:21:53Z</time>
      </trkpt>
      <trkpt lat="44.24709" lon="0.68391">
        <ele>69.35</ele>
        <time>2016-07-21T07:22:06Z</time>
      </trkpt>
      <trkpt lat="44.24716" lon="0.68401">
        <ele>69.35</ele>
        <time>2016-07-21T07:23:02Z</time>
      </trkpt>
      <trkpt lat="44.24724" lon="0.68411">
        <ele>71.27</ele>
        <time>2016-07-21T07:23:40Z</time>
      </trkpt>
      <trkpt lat="44.24733" lon="0.68416">
        <ele>71.27</ele>
        <time>2016-07-21T07:23:50Z</time>
      </trkpt>
      <trkpt lat="44.24741" lon="0.68424">
        <ele>71.27</ele>
        <time>2016-07-21T07:24:00Z</time>
      </trkpt>
      <trkpt lat="44.24751" lon="0.6843">
        <ele>71.27</ele>
        <time>2016-07-21T07:24:11Z</time>
      </trkpt>
      <trkpt lat="44.24759" lon="0.68438">
        <ele>71.27</ele>
        <time>2016-07-21T07:24:20Z</time>
      </trkpt>
      <trkpt lat="44.24769" lon="0.68444">
        <ele>71.27</ele>
        <time>2016-07-21T07:24:30Z</time>
      </trkpt>
      <trkpt lat="44.24777" lon="0.68451">
        <ele>70.79</ele>
        <time>2016-07-21T07:24:39Z</time>
      </trkpt>
      <trkpt lat="44.24785" lon="0.68457">
        <ele>70.79</ele>
        <time>2016-07-21T07:24:47Z</time>
      </trkpt>
      <trkpt lat="44.24793" lon="0.68463">
        <ele>70.79</ele>
        <time>2016-07-21T07:24:56Z</time>
      </trkpt>
      <trkpt lat="44.24801" lon="0.68472">
        <ele>70.79</ele>
        <time>2016-07-21T07:25:06Z</time>
      </trkpt>
      <trkpt lat="44.24808" lon="0.68481">
        <ele>70.79</ele>
        <time>2016-07-21T07:25:15Z</time>
      </trkpt>
      <trkpt lat="44.24816" lon="0.68493">
        <ele>70.79</ele>
        <time>2016-07-21T07:25:26Z</time>
      </trkpt>
      <trkpt lat="44.24821" lon="0.68504">
        <ele>70.79</ele>
        <time>2016-07-21T07:25:34Z</time>
      </trkpt>
      <trkpt lat="44.24826" lon="0.68515">
        <ele>70.79</ele>
        <time>2016-07-21T07:25:43Z</time>
      </trkpt>
      <trkpt lat="44.2483" lon="0.68527">
        <ele>70.79</ele>
        <time>2016-07-21T07:25:53Z</time>
      </trkpt>
      <trkpt lat="44.24833" lon="0.68541">
        <ele>70.79</ele>
        <time>2016-07-21T07:26:03Z</time>
      </trkpt>
      <trkpt lat="44.24834" lon="0.68554">
        <ele>70.79</ele>
        <time>2016-07-21T07:26:14Z</time>
      </trkpt>
      <trkpt lat="44.24833" lon="0.68568">
        <ele>70.79</ele>
        <time>2016-07-21T07:26:25Z</time>
      </trkpt>
      <trkpt lat="44.24834" lon="0.68582">
        <ele>70.79</ele>
        <time>2016-07-21T07:26:33Z</time>
      </trkpt>
      <trkpt lat="44.24835" lon="0.68597">
        <ele>70.79</ele>
        <time>2016-07-21T07:26:44Z</time>
      </trkpt>
      <trkpt lat="44.2484" lon="0.68609">
        <ele>70.79</ele>
        <time>2016-07-21T07:26:55Z</time>
      </trkpt>
      <trkpt lat="44.24845" lon="0.68622">
        <ele>70.79</ele>
        <time>2016-07-21T07:27:07Z</time>
      </trkpt>
      <trkpt lat="44.24848" lon="0.68636">
        <ele>70.79</ele>
        <time>2016-07-21T07:27:17Z</time>
      </trkpt>
      <trkpt lat="44.2485" lon="0.68648">
        <ele>70.79</ele>
        <time>2016-07-21T07:27:27Z</time>
      </trkpt>
      <trkpt lat="44.24853" lon="0.68662">
        <ele>70.79</ele>
        <time>2016-07-21T07:27:38Z</time>
      </trkpt>
      <trkpt lat="44.24856" lon="0.68675">
        <ele>70.79</ele>
        <time>2016-07-21T07:27:47Z</time>
      </trkpt>
      <trkpt lat="44.24859" lon="0.68688">
        <ele>70.79</ele>
        <time>2016-07-21T07:27:57Z</time>
      </trkpt>
      <trkpt lat="44.24864" lon="0.68702">
        <ele>71.27</ele>
        <time>2016-07-21T07:28:08Z</time>
      </trkpt>
      <trkpt lat="44.2487" lon="0.68714">
        <ele>71.27</ele>
        <time>2016-07-21T07:28:19Z</time>
      </trkpt>
      <trkpt lat="44.24873" lon="0.68726">
        <ele>71.27</ele>
        <time>2016-07-21T07:28:29Z</time>
      </trkpt>
      <trkpt lat="44.24876" lon="0.68741">
        <ele>71.27</ele>
        <time>2016-07-21T07:28:40Z</time>
      </trkpt>
      <trkpt lat="44.24877" lon="0.68754">
        <ele>71.27</ele>
        <time>2016-07-21T07:28:50Z</time>
      </trkpt>
      <trkpt lat="44.24877" lon="0.6877">
        <ele>71.27</ele>
        <time>2016-07-21T07:29:01Z</time>
      </trkpt>
      <trkpt lat="44.2488" lon="0.68784">
        <ele>71.76</ele>
        <time>2016-07-21T07:29:11Z</time>
      </trkpt>
      <trkpt lat="44.24885" lon="0.68796">
        <ele>71.76</ele>
        <time>2016-07-21T07:29:22Z</time>
      </trkpt>
      <trkpt lat="44.24893" lon="0.68805">
        <ele>71.76</ele>
        <time>2016-07-21T07:29:33Z</time>
      </trkpt>
      <trkpt lat="44.24902" lon="0.68802">
        <ele>70.31</ele>
        <time>2016-07-21T07:29:45Z</time>
      </trkpt>
      <trkpt lat="44.24911" lon="0.68797">
        <ele>70.31</ele>
        <time>2016-07-21T07:29:56Z</time>
      </trkpt>
      <trkpt lat="44.2492" lon="0.68791">
        <ele>70.31</ele>
        <time>2016-07-21T07:30:07Z</time>
      </trkpt>
      <trkpt lat="44.24931" lon="0.68784">
        <ele>71.27</ele>
        <time>2016-07-21T07:30:19Z</time>
      </trkpt>
      <trkpt lat="44.2494" lon="0.68776">
        <ele>71.27</ele>
        <time>2016-07-21T07:30:29Z</time>
      </trkpt>
      <trkpt lat="44.2495" lon="0.68769">
        <ele>71.76</ele>
        <time>2016-07-21T07:30:40Z</time>
      </trkpt>
      <trkpt lat="44.24959" lon="0.68761">
        <ele>71.76</ele>
        <time>2016-07-21T07:30:51Z</time>
      </trkpt>
      <trkpt lat="44.24967" lon="0.68754">
        <ele>71.76</ele>
        <time>2016-07-21T07:31:03Z</time>
      </trkpt>
      <trkpt lat="44.24976" lon="0.68746">
        <ele>72.24</ele>
        <time>2016-07-21T07:31:13Z</time>
      </trkpt>
      <trkpt lat="44.24986" lon="0.6874">
        <ele>72.24</ele>
        <time>2016-07-21T07:31:24Z</time>
      </trkpt>
      <trkpt lat="44.24995" lon="0.68732">
        <ele>72.24</ele>
        <time>2016-07-21T07:31:35Z</time>
      </trkpt>
      <trkpt lat="44.25004" lon="0.68724">
        <ele>72.72</ele>
        <time>2016-07-21T07:31:46Z</time>
      </trkpt>
      <trkpt lat="44.25013" lon="0.68717">
        <ele>72.72</ele>
        <time>2016-07-21T07:31:57Z</time>
      </trkpt>
      <trkpt lat="44.25024" lon="0.68711">
        <ele>73.2</ele>
        <time>2016-07-21T07:32:09Z</time>
      </trkpt>
      <trkpt lat="44.25032" lon="0.68712">
        <ele>73.68</ele>
        <time>2016-07-21T07:32:25Z</time>
      </trkpt>
      <trkpt lat="44.25036" lon="0.68722">
        <ele>74.16</ele>
        <time>2016-07-21T07:33:40Z</time>
      </trkpt>
      <trkpt lat="44.2504" lon="0.68734">
        <ele>74.16</ele>
        <time>2016-07-21T07:33:50Z</time>
      </trkpt>
      <trkpt lat="44.25045" lon="0.68748">
        <ele>73.2</ele>
        <time>2016-07-21T07:34:01Z</time>
      </trkpt>
      <trkpt lat="44.25048" lon="0.68761">
        <ele>72.72</ele>
        <time>2016-07-21T07:34:11Z</time>
      </trkpt>
      <trkpt lat="44.25054" lon="0.68773">
        <ele>72.72</ele>
        <time>2016-07-21T07:34:22Z</time>
      </trkpt>
      <trkpt lat="44.25059" lon="0.68784">
        <ele>72.72</ele>
        <time>2016-07-21T07:34:33Z</time>
      </trkpt>
      <trkpt lat="44.25066" lon="0.68795">
        <ele>72.24</ele>
        <time>2016-07-21T07:34:44Z</time>
      </trkpt>
      <trkpt lat="44.25078" lon="0.68812">
        <ele>72.24</ele>
        <time>2016-07-21T07:35:03Z</time>
      </trkpt>
      <trkpt lat="44.25085" lon="0.68823">
        <ele>73.68</ele>
        <time>2016-07-21T07:35:16Z</time>
      </trkpt>
      <trkpt lat="44.25091" lon="0.68836">
        <ele>74.16</ele>
        <time>2016-07-21T07:35:28Z</time>
      </trkpt>
      <trkpt lat="44.25098" lon="0.68848">
        <ele>74.64</ele>
        <time>2016-07-21T07:35:40Z</time>
      </trkpt>
      <trkpt lat="44.25104" lon="0.68858">
        <ele>75.6</ele>
        <time>2016-07-21T07:35:51Z</time>
      </trkpt>
      <trkpt lat="44.2511" lon="0.68868">
        <ele>75.6</ele>
        <time>2016-07-21T07:36:01Z</time>
      </trkpt>
      <trkpt lat="44.25116" lon="0.68877">
        <ele>76.08</ele>
        <time>2016-07-21T07:36:10Z</time>
      </trkpt>
      <trkpt lat="44.25122" lon="0.68888">
        <ele>76.08</ele>
        <time>2016-07-21T07:36:20Z</time>
      </trkpt>
      <trkpt lat="44.2513" lon="0.68897">
        <ele>76.08</ele>
        <time>2016-07-21T07:36:29Z</time>
      </trkpt>
      <trkpt lat="44.25136" lon="0.68908">
        <ele>76.08</ele>
        <time>2016-07-21T07:36:39Z</time>
      </trkpt>
      <trkpt lat="44.25142" lon="0.68918">
        <ele>76.56</ele>
        <time>2016-07-21T07:36:49Z</time>
      </trkpt>
      <trkpt lat="44.25147" lon="0.68929">
        <ele>76.56</ele>
        <time>2016-07-21T07:36:58Z</time>
      </trkpt>
      <trkpt lat="44.25154" lon="0.68938">
        <ele>76.56</ele>
        <time>2016-07-21T07:37:07Z</time>
      </trkpt>
      <trkpt lat="44.2516" lon="0.68949">
        <ele>76.56</ele>
        <time>2016-07-21T07:37:17Z</time>
      </trkpt>
      <trkpt lat="44.25166" lon="0.68958">
        <ele>76.56</ele>
        <time>2016-07-21T07:37:26Z</time>
      </trkpt>
      <trkpt lat="44.2517" lon="0.68971">
        <ele>76.56</ele>
        <time>2016-07-21T07:37:36Z</time>
      </trkpt>
      <trkpt lat="44.25176" lon="0.6898">
        <ele>76.56</ele>
        <time>2016-07-21T07:37:45Z</time>
      </trkpt>
      <trkpt lat="44.25183" lon="0.68991">
        <ele>76.56</ele>
        <time>2016-07-21T07:37:56Z</time>
      </trkpt>
      <trkpt lat="44.2519" lon="0.69001">
        <ele>76.56</ele>
        <time>2016-07-21T07:38:07Z</time>
      </trkpt>
      <trkpt lat="44.25196" lon="0.69011">
        <ele>76.56</ele>
        <time>2016-07-21T07:38:16Z</time>
      </trkpt>
      <trkpt lat="44.25203" lon="0.69022">
        <ele>76.56</ele>
        <time>2016-07-21T07:38:26Z</time>
      </trkpt>
      <trkpt lat="44.25209" lon="0.69032">
        <ele>76.56</ele>
        <time>2016-07-21T07:38:36Z</time>
      </trkpt>
      <trkpt lat="44.25215" lon="0.69043">
        <ele>76.56</ele>
        <time>2016-07-21T07:38:46Z</time>
      </trkpt>
      <trkpt lat="44.2522" lon="0.69052">
        <ele>77.04</ele>
        <time>2016-07-21T07:38:55Z</time>
      </trkpt>
      <trkpt lat="44.25227" lon="0.69064">
        <ele>77.04</ele>
        <time>2016-07-21T07:39:06Z</time>
      </trkpt>
      <trkpt lat="44.25233" lon="0.69074">
        <ele>77.04</ele>
        <time>2016-07-21T07:39:16Z</time>
      </trkpt>
      <trkpt lat="44.25239" lon="0.69083">
        <ele>77.52</ele>
        <time>2016-07-21T07:39:25Z</time>
      </trkpt>
      <trkpt lat="44.25246" lon="0.69092">
        <ele>77.52</ele>
        <time>2016-07-21T07:39:36Z</time>
      </trkpt>
      <trkpt lat="44.25253" lon="0.69102">
        <ele>77.52</ele>
        <time>2016-07-21T07:39:45Z</time>
      </trkpt>
      <trkpt lat="44.25258" lon="0.69112">
        <ele>77.52</ele>
        <time>2016-07-21T07:39:55Z</time>
      </trkpt>
      <trkpt lat="44.25265" lon="0.69121">
        <ele>77.52</ele>
        <time>2016-07-21T07:40:04Z</time>
      </trkpt>
      <trkpt lat="44.25271" lon="0.69132">
        <ele>78</ele>
        <time>2016-07-21T07:40:14Z</time>
      </trkpt>
      <trkpt lat="44.25277" lon="0.69141">
        <ele>78.48</ele>
        <time>2016-07-21T07:40:24Z</time>
      </trkpt>
      <trkpt lat="44.25283" lon="0.6915">
        <ele>78.48</ele>
        <time>2016-07-21T07:40:34Z</time>
      </trkpt>
      <trkpt lat="44.25292" lon="0.69159">
        <ele>78.48</ele>
        <time>2016-07-21T07:40:47Z</time>
      </trkpt>
      <trkpt lat="44.25299" lon="0.69175">
        <ele>79.45</ele>
        <time>2016-07-21T07:41:01Z</time>
      </trkpt>
      <trkpt lat="44.25309" lon="0.69195">
        <ele>80.41</ele>
        <time>2016-07-21T07:41:23Z</time>
      </trkpt>
      <trkpt lat="44.25322" lon="0.69215">
        <ele>81.37</ele>
        <time>2016-07-21T07:41:45Z</time>
      </trkpt>
      <trkpt lat="44.25332" lon="0.69236">
        <ele>82.33</ele>
        <time>2016-07-21T07:42:02Z</time>
      </trkpt>
      <trkpt lat="44.25342" lon="0.69251">
        <ele>83.77</ele>
        <time>2016-07-21T07:42:20Z</time>
      </trkpt>
      <trkpt lat="44.25349" lon="0.69267">
        <ele>84.73</ele>
        <time>2016-07-21T07:42:39Z</time>
      </trkpt>
      <trkpt lat="44.25355" lon="0.69279">
        <ele>84.73</ele>
        <time>2016-07-21T07:42:50Z</time>
      </trkpt>
      <trkpt lat="44.25364" lon="0.69289">
        <ele>84.73</ele>
        <time>2016-07-21T07:43:02Z</time>
      </trkpt>
      <trkpt lat="44.25374" lon="0.69295">
        <ele>83.29</ele>
        <time>2016-07-21T07:43:14Z</time>
      </trkpt>
      <trkpt lat="44.25384" lon="0.69298">
        <ele>82.81</ele>
        <time>2016-07-21T07:43:24Z</time>
      </trkpt>
      <trkpt lat="44.25394" lon="0.69303">
        <ele>82.81</ele>
        <time>2016-07-21T07:43:35Z</time>
      </trkpt>
      <trkpt lat="44.25402" lon="0.69307">
        <ele>81.85</ele>
        <time>2016-07-21T07:43:47Z</time>
      </trkpt>
      <trkpt lat="44.25411" lon="0.69316">
        <ele>81.37</ele>
        <time>2016-07-21T07:43:59Z</time>
      </trkpt>
      <trkpt lat="44.25419" lon="0.69325">
        <ele>81.37</ele>
        <time>2016-07-21T07:44:11Z</time>
      </trkpt>
      <trkpt lat="44.25425" lon="0.69343">
        <ele>80.41</ele>
        <time>2016-07-21T07:44:23Z</time>
      </trkpt>
      <trkpt lat="44.25434" lon="0.69353">
        <ele>79.93</ele>
        <time>2016-07-21T07:44:33Z</time>
      </trkpt>
      <trkpt lat="44.25441" lon="0.69362">
        <ele>79.45</ele>
        <time>2016-07-21T07:44:42Z</time>
      </trkpt>
      <trkpt lat="44.25449" lon="0.69375">
        <ele>79.45</ele>
        <time>2016-07-21T07:44:53Z</time>
      </trkpt>
      <trkpt lat="44.25457" lon="0.6939">
        <ele>78.97</ele>
        <time>2016-07-21T07:45:06Z</time>
      </trkpt>
      <trkpt lat="44.25467" lon="0.69403">
        <ele>78.97</ele>
        <time>2016-07-21T07:45:19Z</time>
      </trkpt>
      <trkpt lat="44.25475" lon="0.69412">
        <ele>78.97</ele>
        <time>2016-07-21T07:45:29Z</time>
      </trkpt>
      <trkpt lat="44.25484" lon="0.69421">
        <ele>78.97</ele>
        <time>2016-07-21T07:45:39Z</time>
      </trkpt>
      <trkpt lat="44.25492" lon="0.6943">
        <ele>78.97</ele>
        <time>2016-07-21T07:45:48Z</time>
      </trkpt>
      <trkpt lat="44.255" lon="0.69442">
        <ele>78.48</ele>
        <time>2016-07-21T07:46:00Z</time>
      </trkpt>
      <trkpt lat="44.2551" lon="0.69458">
        <ele>78</ele>
        <time>2016-07-21T07:46:12Z</time>
      </trkpt>
      <trkpt lat="44.25517" lon="0.69469">
        <ele>78</ele>
        <time>2016-07-21T07:46:21Z</time>
      </trkpt>
      <trkpt lat="44.25525" lon="0.69478">
        <ele>77.52</ele>
        <time>2016-07-21T07:46:30Z</time>
      </trkpt>
      <trkpt lat="44.25533" lon="0.69489">
        <ele>78</ele>
        <time>2016-07-21T07:46:42Z</time>
      </trkpt>
      <trkpt lat="44.25543" lon="0.69496">
        <ele>78</ele>
        <time>2016-07-21T07:46:51Z</time>
      </trkpt>
      <trkpt lat="44.25552" lon="0.69509">
        <ele>78.97</ele>
        <time>2016-07-21T07:47:03Z</time>
      </trkpt>
      <trkpt lat="44.25561" lon="0.69521">
        <ele>78.97</ele>
        <time>2016-07-21T07:47:15Z</time>
      </trkpt>
      <trkpt lat="44.2557" lon="0.6953">
        <ele>78.97</ele>
        <time>2016-07-21T07:47:25Z</time>
      </trkpt>
      <trkpt lat="44.25577" lon="0.6954">
        <ele>79.45</ele>
        <time>2016-07-21T07:47:35Z</time>
      </trkpt>
      <trkpt lat="44.25585" lon="0.69549">
        <ele>79.45</ele>
        <time>2016-07-21T07:47:43Z</time>
      </trkpt>
      <trkpt lat="44.25593" lon="0.69559">
        <ele>79.45</ele>
        <time>2016-07-21T07:47:54Z</time>
      </trkpt>
      <trkpt lat="44.25601" lon="0.69568">
        <ele>79.45</ele>
        <time>2016-07-21T07:48:03Z</time>
      </trkpt>
      <trkpt lat="44.25608" lon="0.69577">
        <ele>79.45</ele>
        <time>2016-07-21T07:48:12Z</time>
      </trkpt>
      <trkpt lat="44.25616" lon="0.69589">
        <ele>79.45</ele>
        <time>2016-07-21T07:48:23Z</time>
      </trkpt>
      <trkpt lat="44.25624" lon="0.696">
        <ele>79.45</ele>
        <time>2016-07-21T07:48:32Z</time>
      </trkpt>
      <trkpt lat="44.2563" lon="0.69609">
        <ele>79.45</ele>
        <time>2016-07-21T07:48:40Z</time>
      </trkpt>
      <trkpt lat="44.25638" lon="0.69618">
        <ele>79.45</ele>
        <time>2016-07-21T07:48:50Z</time>
      </trkpt>
      <trkpt lat="44.25645" lon="0.6963">
        <ele>79.45</ele>
        <time>2016-07-21T07:49:00Z</time>
      </trkpt>
      <trkpt lat="44.25653" lon="0.69638">
        <ele>79.45</ele>
        <time>2016-07-21T07:49:08Z</time>
      </trkpt>
      <trkpt lat="44.2566" lon="0.69645">
        <ele>79.45</ele>
        <time>2016-07-21T07:49:17Z</time>
      </trkpt>
      <trkpt lat="44.25669" lon="0.69653">
        <ele>79.45</ele>
        <time>2016-07-21T07:49:26Z</time>
      </trkpt>
      <trkpt lat="44.25677" lon="0.69661">
        <ele>79.45</ele>
        <time>2016-07-21T07:49:36Z</time>
      </trkpt>
      <trkpt lat="44.25686" lon="0.69669">
        <ele>79.45</ele>
        <time>2016-07-21T07:49:45Z</time>
      </trkpt>
      <trkpt lat="44.25694" lon="0.69678">
        <ele>79.45</ele>
        <time>2016-07-21T07:49:55Z</time>
      </trkpt>
      <trkpt lat="44.25702" lon="0.69686">
        <ele>79.45</ele>
        <time>2016-07-21T07:50:05Z</time>
      </trkpt>
      <trkpt lat="44.25711" lon="0.69695">
        <ele>79.45</ele>
        <time>2016-07-21T07:50:15Z</time>
      </trkpt>
      <trkpt lat="44.2572" lon="0.69702">
        <ele>79.45</ele>
        <time>2016-07-21T07:50:25Z</time>
      </trkpt>
      <trkpt lat="44.25729" lon="0.69708">
        <ele>78</ele>
        <time>2016-07-21T07:50:34Z</time>
      </trkpt>
      <trkpt lat="44.25737" lon="0.69717">
        <ele>78</ele>
        <time>2016-07-21T07:50:44Z</time>
      </trkpt>
      <trkpt lat="44.25746" lon="0.69725">
        <ele>78</ele>
        <time>2016-07-21T07:50:54Z</time>
      </trkpt>
      <trkpt lat="44.25754" lon="0.69734">
        <ele>78</ele>
        <time>2016-07-21T07:51:04Z</time>
      </trkpt>
      <trkpt lat="44.25763" lon="0.69743">
        <ele>78</ele>
        <time>2016-07-21T07:51:15Z</time>
      </trkpt>
      <trkpt lat="44.25771" lon="0.69751">
        <ele>78</ele>
        <time>2016-07-21T07:51:25Z</time>
      </trkpt>
      <trkpt lat="44.2578" lon="0.69759">
        <ele>78</ele>
        <time>2016-07-21T07:51:35Z</time>
      </trkpt>
      <trkpt lat="44.25788" lon="0.69767">
        <ele>78</ele>
        <time>2016-07-21T07:51:45Z</time>
      </trkpt>
      <trkpt lat="44.25796" lon="0.69775">
        <ele>79.45</ele>
        <time>2016-07-21T07:51:53Z</time>
      </trkpt>
      <trkpt lat="44.25804" lon="0.69783">
        <ele>79.45</ele>
        <time>2016-07-21T07:52:03Z</time>
      </trkpt>
      <trkpt lat="44.25812" lon="0.69794">
        <ele>79.93</ele>
        <time>2016-07-21T07:52:15Z</time>
      </trkpt>
      <trkpt lat="44.2582" lon="0.69803">
        <ele>79.93</ele>
        <time>2016-07-21T07:52:24Z</time>
      </trkpt>
      <trkpt lat="44.25827" lon="0.69809">
        <ele>80.89</ele>
        <time>2016-07-21T07:52:32Z</time>
      </trkpt>
      <trkpt lat="44.25834" lon="0.69816">
        <ele>80.89</ele>
        <time>2016-07-21T07:52:41Z</time>
      </trkpt>
      <trkpt lat="44.25842" lon="0.69823">
        <ele>81.85</ele>
        <time>2016-07-21T07:52:51Z</time>
      </trkpt>
      <trkpt lat="44.2585" lon="0.69831">
        <ele>81.85</ele>
        <time>2016-07-21T07:53:01Z</time>
      </trkpt>
      <trkpt lat="44.25852" lon="0.69844">
        <ele>81.85</ele>
        <time>2016-07-21T07:53:11Z</time>
      </trkpt>
      <trkpt lat="44.25847" lon="0.69856">
        <ele>80.41</ele>
        <time>2016-07-21T07:53:22Z</time>
      </trkpt>
      <trkpt lat="44.25843" lon="0.69868">
        <ele>79.45</ele>
        <time>2016-07-21T07:53:31Z</time>
      </trkpt>
      <trkpt lat="44.25835" lon="0.69885">
        <ele>78.48</ele>
        <time>2016-07-21T07:53:44Z</time>
      </trkpt>
      <trkpt lat="44.25826" lon="0.69904">
        <ele>77.52</ele>
        <time>2016-07-21T07:54:02Z</time>
      </trkpt>
      <trkpt lat="44.25819" lon="0.69918">
        <ele>77.52</ele>
        <time>2016-07-21T07:54:15Z</time>
      </trkpt>
      <trkpt lat="44.25814" lon="0.69939">
        <ele>77.52</ele>
        <time>2016-07-21T07:54:30Z</time>
      </trkpt>
      <trkpt lat="44.25809" lon="0.69965">
        <ele>77.52</ele>
        <time>2016-07-21T07:56:23Z</time>
      </trkpt>
      <trkpt lat="44.25813" lon="0.69978">
        <ele>77.52</ele>
        <time>2016-07-21T07:56:33Z</time>
      </trkpt>
      <trkpt lat="44.2582" lon="0.69991">
        <ele>77.52</ele>
        <time>2016-07-21T07:56:45Z</time>
      </trkpt>
      <trkpt lat="44.25827" lon="0.70004">
        <ele>77.52</ele>
        <time>2016-07-21T07:56:56Z</time>
      </trkpt>
      <trkpt lat="44.25834" lon="0.70015">
        <ele>77.52</ele>
        <time>2016-07-21T07:57:06Z</time>
      </trkpt>
      <trkpt lat="44.25839" lon="0.70027">
        <ele>77.52</ele>
        <time>2016-07-21T07:57:16Z</time>
      </trkpt>
      <trkpt lat="44.25844" lon="0.70039">
        <ele>77.52</ele>
        <time>2016-07-21T07:57:25Z</time>
      </trkpt>
      <trkpt lat="44.25848" lon="0.70051">
        <ele>77.52</ele>
        <time>2016-07-21T07:57:35Z</time>
      </trkpt>
      <trkpt lat="44.25852" lon="0.70064">
        <ele>77.52</ele>
        <time>2016-07-21T07:57:43Z</time>
      </trkpt>
      <trkpt lat="44.25856" lon="0.70078">
        <ele>77.52</ele>
        <time>2016-07-21T07:57:54Z</time>
      </trkpt>
      <trkpt lat="44.25861" lon="0.7009">
        <ele>77.52</ele>
        <time>2016-07-21T07:58:03Z</time>
      </trkpt>
      <trkpt lat="44.25867" lon="0.701">
        <ele>77.52</ele>
        <time>2016-07-21T07:58:13Z</time>
      </trkpt>
      <trkpt lat="44.25872" lon="0.70112">
        <ele>77.52</ele>
        <time>2016-07-21T07:58:23Z</time>
      </trkpt>
      <trkpt lat="44.25874" lon="0.70125">
        <ele>77.52</ele>
        <time>2016-07-21T07:58:32Z</time>
      </trkpt>
      <trkpt lat="44.25875" lon="0.7014">
        <ele>77.52</ele>
        <time>2016-07-21T07:58:42Z</time>
      </trkpt>
      <trkpt lat="44.25879" lon="0.70154">
        <ele>77.52</ele>
        <time>2016-07-21T07:58:54Z</time>
      </trkpt>
      <trkpt lat="44.2588" lon="0.70168">
        <ele>78.48</ele>
        <time>2016-07-21T07:59:05Z</time>
      </trkpt>
      <trkpt lat="44.25882" lon="0.70184">
        <ele>78.48</ele>
        <time>2016-07-21T07:59:16Z</time>
      </trkpt>
      <trkpt lat="44.25884" lon="0.70201">
        <ele>78.48</ele>
        <time>2016-07-21T07:59:28Z</time>
      </trkpt>
      <trkpt lat="44.25885" lon="0.70217">
        <ele>78.48</ele>
        <time>2016-07-21T07:59:38Z</time>
      </trkpt>
      <trkpt lat="44.25888" lon="0.70232">
        <ele>78.48</ele>
        <time>2016-07-21T07:59:48Z</time>
      </trkpt>
      <trkpt lat="44.25892" lon="0.70247">
        <ele>78.48</ele>
        <time>2016-07-21T08:00:00Z</time>
      </trkpt>
      <trkpt lat="44.25894" lon="0.70264">
        <ele>77.52</ele>
        <time>2016-07-21T08:00:16Z</time>
      </trkpt>
      <trkpt lat="44.25902" lon="0.70311">
        <ele>77.52</ele>
        <time>2016-07-21T08:00:56Z</time>
      </trkpt>
      <trkpt lat="44.259" lon="0.70335">
        <ele>77.52</ele>
        <time>2016-07-21T08:01:11Z</time>
      </trkpt>
      <trkpt lat="44.25913" lon="0.70353">
        <ele>78.48</ele>
        <time>2016-07-21T08:01:27Z</time>
      </trkpt>
      <trkpt lat="44.25924" lon="0.70363">
        <ele>78.48</ele>
        <time>2016-07-21T08:01:38Z</time>
      </trkpt>
      <trkpt lat="44.2593" lon="0.70376">
        <ele>78.97</ele>
        <time>2016-07-21T08:01:48Z</time>
      </trkpt>
      <trkpt lat="44.25922" lon="0.70393">
        <ele>78.97</ele>
        <time>2016-07-21T08:02:05Z</time>
      </trkpt>
      <trkpt lat="44.25913" lon="0.70401">
        <ele>79.93</ele>
        <time>2016-07-21T08:02:17Z</time>
      </trkpt>
      <trkpt lat="44.25904" lon="0.70409">
        <ele>79.93</ele>
        <time>2016-07-21T08:02:29Z</time>
      </trkpt>
      <trkpt lat="44.25896" lon="0.70416">
        <ele>80.89</ele>
        <time>2016-07-21T08:02:40Z</time>
      </trkpt>
      <trkpt lat="44.25886" lon="0.70421">
        <ele>81.85</ele>
        <time>2016-07-21T08:02:53Z</time>
      </trkpt>
      <trkpt lat="44.2588" lon="0.70439">
        <ele>82.81</ele>
        <time>2016-07-21T08:03:08Z</time>
      </trkpt>
      <trkpt lat="44.25872" lon="0.70448">
        <ele>83.29</ele>
        <time>2016-07-21T08:03:21Z</time>
      </trkpt>
      <trkpt lat="44.25855" lon="0.70453">
        <ele>87.14</ele>
        <time>2016-07-21T08:03:55Z</time>
      </trkpt>
      <trkpt lat="44.25849" lon="0.7044">
        <ele>88.1</ele>
        <time>2016-07-21T08:04:10Z</time>
      </trkpt>
      <trkpt lat="44.25841" lon="0.70425">
        <ele>88.58</ele>
        <time>2016-07-21T08:04:26Z</time>
      </trkpt>
      <trkpt lat="44.25835" lon="0.70404">
        <ele>89.06</ele>
        <time>2016-07-21T08:04:43Z</time>
      </trkpt>
      <trkpt lat="44.25834" lon="0.70388">
        <ele>89.06</ele>
        <time>2016-07-21T08:04:54Z</time>
      </trkpt>
      <trkpt lat="44.25835" lon="0.70374">
        <ele>89.06</ele>
        <time>2016-07-21T08:05:03Z</time>
      </trkpt>
      <trkpt lat="44.25844" lon="0.7036">
        <ele>88.1</ele>
        <time>2016-07-21T08:05:18Z</time>
      </trkpt>
      <trkpt lat="44.25854" lon="0.7035">
        <ele>87.14</ele>
        <time>2016-07-21T08:05:28Z</time>
      </trkpt>
      <trkpt lat="44.25854" lon="0.70332">
        <ele>86.18</ele>
        <time>2016-07-21T08:05:42Z</time>
      </trkpt>
      <trkpt lat="44.25854" lon="0.70291">
        <ele>87.14</ele>
        <time>2016-07-21T08:06:07Z</time>
      </trkpt>
      <trkpt lat="44.25846" lon="0.70255">
        <ele>88.1</ele>
        <time>2016-07-21T08:06:35Z</time>
      </trkpt>
      <trkpt lat="44.25807" lon="0.70285">
        <ele>103.96</ele>
        <time>2016-07-21T08:09:15Z</time>
      </trkpt>
      <trkpt lat="44.25748" lon="0.70316">
        <ele>119.82</ele>
        <time>2016-07-21T08:13:54Z</time>
      </trkpt>
      <trkpt lat="44.25723" lon="0.70328">
        <ele>126.55</ele>
        <time>2016-07-21T08:16:23Z</time>
      </trkpt>
      <trkpt lat="44.25707" lon="0.7031">
        <ele>128.47</ele>
        <time>2016-07-21T08:16:49Z</time>
      </trkpt>
      <trkpt lat="44.25655" lon="0.70256">
        <ele>130.4</ele>
        <time>2016-07-21T08:18:06Z</time>
      </trkpt>
      <trkpt lat="44.25647" lon="0.70244">
        <ele>130.88</ele>
        <time>2016-07-21T08:18:16Z</time>
      </trkpt>
      <trkpt lat="44.25639" lon="0.70234">
        <ele>130.88</ele>
        <time>2016-07-21T08:18:28Z</time>
      </trkpt>
      <trkpt lat="44.2561" lon="0.7018">
        <ele>131.84</ele>
        <time>2016-07-21T08:19:17Z</time>
      </trkpt>
      <trkpt lat="44.25576" lon="0.70146">
        <ele>136.64</ele>
        <time>2016-07-21T08:20:05Z</time>
      </trkpt>
      <trkpt lat="44.25561" lon="0.70136">
        <ele>138.09</ele>
        <time>2016-07-21T08:20:22Z</time>
      </trkpt>
      <trkpt lat="44.25546" lon="0.7013">
        <ele>138.57</ele>
        <time>2016-07-21T08:20:34Z</time>
      </trkpt>
      <trkpt lat="44.25518" lon="0.70124">
        <ele>140.01</ele>
        <time>2016-07-21T08:21:08Z</time>
      </trkpt>
      <trkpt lat="44.25502" lon="0.70118">
        <ele>140.01</ele>
        <time>2016-07-21T08:21:25Z</time>
      </trkpt>
      <trkpt lat="44.25463" lon="0.70076">
        <ele>136.64</ele>
        <time>2016-07-21T08:22:16Z</time>
      </trkpt>
      <trkpt lat="44.25472" lon="0.70069">
        <ele>131.84</ele>
        <time>2016-07-21T08:22:54Z</time>
      </trkpt>
      <trkpt lat="44.25481" lon="0.7005">
        <ele>128.47</ele>
        <time>2016-07-21T08:23:15Z</time>
      </trkpt>
      <trkpt lat="44.25487" lon="0.70036">
        <ele>126.55</ele>
        <time>2016-07-21T08:23:28Z</time>
      </trkpt>
      <trkpt lat="44.25495" lon="0.70035">
        <ele>125.11</ele>
        <time>2016-07-21T08:23:41Z</time>
      </trkpt>
      <trkpt lat="44.25504" lon="0.70042">
        <ele>124.63</ele>
        <time>2016-07-21T08:23:52Z</time>
      </trkpt>
      <trkpt lat="44.25513" lon="0.70049">
        <ele>124.15</ele>
        <time>2016-07-21T08:24:02Z</time>
      </trkpt>
      <trkpt lat="44.25522" lon="0.70055">
        <ele>123.19</ele>
        <time>2016-07-21T08:24:13Z</time>
      </trkpt>
      <trkpt lat="44.25514" lon="0.70019">
        <ele>116.94</ele>
        <time>2016-07-21T08:24:49Z</time>
      </trkpt>
      <trkpt lat="44.25506" lon="0.70001">
        <ele>115.01</ele>
        <time>2016-07-21T08:25:06Z</time>
      </trkpt>
      <trkpt lat="44.25499" lon="0.69989">
        <ele>114.53</ele>
        <time>2016-07-21T08:25:16Z</time>
      </trkpt>
      <trkpt lat="44.25481" lon="0.69954">
        <ele>110.21</ele>
        <time>2016-07-21T08:25:51Z</time>
      </trkpt>
      <trkpt lat="44.25463" lon="0.69926">
        <ele>104.92</ele>
        <time>2016-07-21T08:26:27Z</time>
      </trkpt>
      <trkpt lat="44.25451" lon="0.69898">
        <ele>101.08</ele>
        <time>2016-07-21T08:26:54Z</time>
      </trkpt>
      <trkpt lat="44.25437" lon="0.69867">
        <ele>97.71</ele>
        <time>2016-07-21T08:27:18Z</time>
      </trkpt>
      <trkpt lat="44.25432" lon="0.69856">
        <ele>95.79</ele>
        <time>2016-07-21T08:27:39Z</time>
      </trkpt>
      <trkpt lat="44.25421" lon="0.6985">
        <ele>95.79</ele>
        <time>2016-07-21T08:27:47Z</time>
      </trkpt>
      <trkpt lat="44.2541" lon="0.69854">
        <ele>95.31</ele>
        <time>2016-07-21T08:27:58Z</time>
      </trkpt>
      <trkpt lat="44.25402" lon="0.69859">
        <ele>94.83</ele>
        <time>2016-07-21T08:28:08Z</time>
      </trkpt>
      <trkpt lat="44.25393" lon="0.69859">
        <ele>93.87</ele>
        <time>2016-07-21T08:28:18Z</time>
      </trkpt>
      <trkpt lat="44.25383" lon="0.6986">
        <ele>93.39</ele>
        <time>2016-07-21T08:28:27Z</time>
      </trkpt>
      <trkpt lat="44.25374" lon="0.69861">
        <ele>92.42</ele>
        <time>2016-07-21T08:28:37Z</time>
      </trkpt>
      <trkpt lat="44.25365" lon="0.69862">
        <ele>91.94</ele>
        <time>2016-07-21T08:28:46Z</time>
      </trkpt>
      <trkpt lat="44.25355" lon="0.69863">
        <ele>90.98</ele>
        <time>2016-07-21T08:28:56Z</time>
      </trkpt>
      <trkpt lat="44.25345" lon="0.69865">
        <ele>90.5</ele>
        <time>2016-07-21T08:29:05Z</time>
      </trkpt>
      <trkpt lat="44.25335" lon="0.69866">
        <ele>90.02</ele>
        <time>2016-07-21T08:29:15Z</time>
      </trkpt>
      <trkpt lat="44.25326" lon="0.69867">
        <ele>89.06</ele>
        <time>2016-07-21T08:29:25Z</time>
      </trkpt>
      <trkpt lat="44.25317" lon="0.69869">
        <ele>89.06</ele>
        <time>2016-07-21T08:29:34Z</time>
      </trkpt>
      <trkpt lat="44.25308" lon="0.6987">
        <ele>88.58</ele>
        <time>2016-07-21T08:29:43Z</time>
      </trkpt>
      <trkpt lat="44.25299" lon="0.69875">
        <ele>88.58</ele>
        <time>2016-07-21T08:29:53Z</time>
      </trkpt>
      <trkpt lat="44.25291" lon="0.6988">
        <ele>88.58</ele>
        <time>2016-07-21T08:30:04Z</time>
      </trkpt>
      <trkpt lat="44.25282" lon="0.69875">
        <ele>88.1</ele>
        <time>2016-07-21T08:30:16Z</time>
      </trkpt>
      <trkpt lat="44.25271" lon="0.69869">
        <ele>89.06</ele>
        <time>2016-07-21T08:30:30Z</time>
      </trkpt>
      <trkpt lat="44.25197" lon="0.69827">
        <ele>101.56</ele>
        <time>2016-07-21T08:34:12Z</time>
      </trkpt>
      <trkpt lat="44.25089" lon="0.69818">
        <ele>125.59</ele>
        <time>2016-07-21T08:37:56Z</time>
      </trkpt>
      <trkpt lat="44.25076" lon="0.69816">
        <ele>127.51</ele>
        <time>2016-07-21T08:38:15Z</time>
      </trkpt>
      <trkpt lat="44.25065" lon="0.69809">
        <ele>128.95</ele>
        <time>2016-07-21T08:38:29Z</time>
      </trkpt>
      <trkpt lat="44.25029" lon="0.69782">
        <ele>138.09</ele>
        <time>2016-07-21T08:40:11Z</time>
      </trkpt>
      <trkpt lat="44.24993" lon="0.69815">
        <ele>147.22</ele>
        <time>2016-07-21T08:42:26Z</time>
      </trkpt>
      <trkpt lat="44.24979" lon="0.69833">
        <ele>147.7</ele>
        <time>2016-07-21T08:43:21Z</time>
      </trkpt>
      <trkpt lat="44.24968" lon="0.69842">
        <ele>148.18</ele>
        <time>2016-07-21T08:43:35Z</time>
      </trkpt>
      <trkpt lat="44.24958" lon="0.69852">
        <ele>148.66</ele>
        <time>2016-07-21T08:43:52Z</time>
      </trkpt>
      <trkpt lat="44.24939" lon="0.69858">
        <ele>149.14</ele>
        <time>2016-07-21T08:44:18Z</time>
      </trkpt>
      <trkpt lat="44.24935" lon="0.69834">
        <ele>151.06</ele>
        <time>2016-07-21T08:44:43Z</time>
      </trkpt>
      <trkpt lat="44.24933" lon="0.69819">
        <ele>152.03</ele>
        <time>2016-07-21T08:44:55Z</time>
      </trkpt>
      <trkpt lat="44.24925" lon="0.69807">
        <ele>152.99</ele>
        <time>2016-07-21T08:45:07Z</time>
      </trkpt>
      <trkpt lat="44.24915" lon="0.69801">
        <ele>153.95</ele>
        <time>2016-07-21T08:45:19Z</time>
      </trkpt>
      <trkpt lat="44.24904" lon="0.698">
        <ele>154.91</ele>
        <time>2016-07-21T08:45:30Z</time>
      </trkpt>
      <trkpt lat="44.24893" lon="0.69798">
        <ele>155.39</ele>
        <time>2016-07-21T08:45:40Z</time>
      </trkpt>
      <trkpt lat="44.24882" lon="0.69797">
        <ele>155.39</ele>
        <time>2016-07-21T08:45:51Z</time>
      </trkpt>
      <trkpt lat="44.24871" lon="0.69795">
        <ele>155.39</ele>
        <time>2016-07-21T08:46:03Z</time>
      </trkpt>
      <trkpt lat="44.24861" lon="0.69794">
        <ele>155.87</ele>
        <time>2016-07-21T08:46:13Z</time>
      </trkpt>
      <trkpt lat="44.2485" lon="0.69793">
        <ele>155.87</ele>
        <time>2016-07-21T08:46:23Z</time>
      </trkpt>
      <trkpt lat="44.24839" lon="0.6979">
        <ele>156.35</ele>
        <time>2016-07-21T08:46:33Z</time>
      </trkpt>
      <trkpt lat="44.2483" lon="0.69787">
        <ele>156.35</ele>
        <time>2016-07-21T08:46:42Z</time>
      </trkpt>
      <trkpt lat="44.24821" lon="0.69785">
        <ele>156.83</ele>
        <time>2016-07-21T08:46:52Z</time>
      </trkpt>
      <trkpt lat="44.24811" lon="0.69784">
        <ele>157.31</ele>
        <time>2016-07-21T08:47:02Z</time>
      </trkpt>
      <trkpt lat="44.248" lon="0.69785">
        <ele>158.75</ele>
        <time>2016-07-21T08:47:12Z</time>
      </trkpt>
      <trkpt lat="44.2479" lon="0.69786">
        <ele>159.24</ele>
        <time>2016-07-21T08:47:22Z</time>
      </trkpt>
      <trkpt lat="44.24781" lon="0.69787">
        <ele>161.16</ele>
        <time>2016-07-21T08:47:35Z</time>
      </trkpt>
      <trkpt lat="44.24771" lon="0.6979">
        <ele>162.6</ele>
        <time>2016-07-21T08:47:47Z</time>
      </trkpt>
      <trkpt lat="44.24761" lon="0.69794">
        <ele>163.08</ele>
        <time>2016-07-21T08:47:59Z</time>
      </trkpt>
      <trkpt lat="44.24753" lon="0.69798">
        <ele>164.04</ele>
        <time>2016-07-21T08:48:10Z</time>
      </trkpt>
      <trkpt lat="44.24743" lon="0.69802">
        <ele>165.48</ele>
        <time>2016-07-21T08:48:22Z</time>
      </trkpt>
      <trkpt lat="44.24734" lon="0.69808">
        <ele>166.93</ele>
        <time>2016-07-21T08:48:33Z</time>
      </trkpt>
      <trkpt lat="44.24724" lon="0.69813">
        <ele>167.89</ele>
        <time>2016-07-21T08:48:46Z</time>
      </trkpt>
      <trkpt lat="44.24711" lon="0.69818">
        <ele>169.33</ele>
        <time>2016-07-21T08:49:01Z</time>
      </trkpt>
      <trkpt lat="44.24699" lon="0.69822">
        <ele>170.29</ele>
        <time>2016-07-21T08:49:12Z</time>
      </trkpt>
      <trkpt lat="44.24689" lon="0.69827">
        <ele>170.29</ele>
        <time>2016-07-21T08:49:22Z</time>
      </trkpt>
      <trkpt lat="44.2468" lon="0.69831">
        <ele>170.29</ele>
        <time>2016-07-21T08:49:33Z</time>
      </trkpt>
      <trkpt lat="44.24672" lon="0.69825">
        <ele>170.77</ele>
        <time>2016-07-21T08:49:56Z</time>
      </trkpt>
      <trkpt lat="44.24666" lon="0.69812">
        <ele>170.77</ele>
        <time>2016-07-21T08:50:06Z</time>
      </trkpt>
      <trkpt lat="44.24664" lon="0.69795">
        <ele>170.77</ele>
        <time>2016-07-21T08:50:17Z</time>
      </trkpt>
      <trkpt lat="44.24659" lon="0.69785">
        <ele>170.77</ele>
        <time>2016-07-21T08:50:26Z</time>
      </trkpt>
      <trkpt lat="44.24655" lon="0.69769">
        <ele>170.77</ele>
        <time>2016-07-21T08:50:37Z</time>
      </trkpt>
      <trkpt lat="44.24651" lon="0.69753">
        <ele>170.77</ele>
        <time>2016-07-21T08:50:47Z</time>
      </trkpt>
      <trkpt lat="44.24648" lon="0.69742">
        <ele>170.77</ele>
        <time>2016-07-21T08:50:57Z</time>
      </trkpt>
      <trkpt lat="44.24645" lon="0.69725">
        <ele>171.73</ele>
        <time>2016-07-21T08:51:11Z</time>
      </trkpt>
      <trkpt lat="44.24642" lon="0.69697">
        <ele>172.21</ele>
        <time>2016-07-21T08:51:32Z</time>
      </trkpt>
      <trkpt lat="44.24635" lon="0.69669">
        <ele>174.62</ele>
        <time>2016-07-21T08:51:53Z</time>
      </trkpt>
      <trkpt lat="44.24622" lon="0.6966">
        <ele>175.1</ele>
        <time>2016-07-21T08:52:05Z</time>
      </trkpt>
      <trkpt lat="44.24611" lon="0.69667">
        <ele>175.1</ele>
        <time>2016-07-21T08:52:14Z</time>
      </trkpt>
      <trkpt lat="44.24602" lon="0.69675">
        <ele>175.58</ele>
        <time>2016-07-21T08:52:24Z</time>
      </trkpt>
      <trkpt lat="44.24594" lon="0.69687">
        <ele>176.06</ele>
        <time>2016-07-21T08:52:35Z</time>
      </trkpt>
      <trkpt lat="44.24587" lon="0.69695">
        <ele>176.06</ele>
        <time>2016-07-21T08:52:44Z</time>
      </trkpt>
      <trkpt lat="44.24578" lon="0.69706">
        <ele>176.06</ele>
        <time>2016-07-21T08:52:53Z</time>
      </trkpt>
      <trkpt lat="44.24571" lon="0.69713">
        <ele>176.06</ele>
        <time>2016-07-21T08:53:01Z</time>
      </trkpt>
      <trkpt lat="44.24563" lon="0.69721">
        <ele>174.62</ele>
        <time>2016-07-21T08:53:11Z</time>
      </trkpt>
      <trkpt lat="44.24555" lon="0.69728">
        <ele>173.66</ele>
        <time>2016-07-21T08:53:20Z</time>
      </trkpt>
      <trkpt lat="44.24546" lon="0.69734">
        <ele>172.69</ele>
        <time>2016-07-21T08:53:30Z</time>
      </trkpt>
      <trkpt lat="44.24538" lon="0.69739">
        <ele>172.21</ele>
        <time>2016-07-21T08:53:40Z</time>
      </trkpt>
      <trkpt lat="44.24528" lon="0.69745">
        <ele>171.25</ele>
        <time>2016-07-21T08:53:50Z</time>
      </trkpt>
      <trkpt lat="44.24517" lon="0.69749">
        <ele>170.29</ele>
        <time>2016-07-21T08:54:00Z</time>
      </trkpt>
      <trkpt lat="44.24507" lon="0.69754">
        <ele>168.85</ele>
        <time>2016-07-21T08:54:13Z</time>
      </trkpt>
      <trkpt lat="44.24493" lon="0.69759">
        <ele>166.93</ele>
        <time>2016-07-21T08:54:29Z</time>
      </trkpt>
      <trkpt lat="44.24483" lon="0.69765">
        <ele>165</ele>
        <time>2016-07-21T08:54:40Z</time>
      </trkpt>
      <trkpt lat="44.24472" lon="0.69769">
        <ele>163.56</ele>
        <time>2016-07-21T08:54:51Z</time>
      </trkpt>
      <trkpt lat="44.24461" lon="0.69771">
        <ele>161.64</ele>
        <time>2016-07-21T08:55:04Z</time>
      </trkpt>
      <trkpt lat="44.24447" lon="0.69773">
        <ele>159.24</ele>
        <time>2016-07-21T08:55:19Z</time>
      </trkpt>
      <trkpt lat="44.24434" lon="0.69779">
        <ele>157.31</ele>
        <time>2016-07-21T08:55:33Z</time>
      </trkpt>
      <trkpt lat="44.24418" lon="0.69782">
        <ele>154.43</ele>
        <time>2016-07-21T08:55:49Z</time>
      </trkpt>
      <trkpt lat="44.24409" lon="0.69782">
        <ele>152.99</ele>
        <time>2016-07-21T08:56:00Z</time>
      </trkpt>
      <trkpt lat="44.24401" lon="0.69778">
        <ele>151.54</ele>
        <time>2016-07-21T08:56:10Z</time>
      </trkpt>
      <trkpt lat="44.2439" lon="0.69774">
        <ele>149.62</ele>
        <time>2016-07-21T08:56:22Z</time>
      </trkpt>
      <trkpt lat="44.24379" lon="0.69771">
        <ele>147.7</ele>
        <time>2016-07-21T08:56:32Z</time>
      </trkpt>
      <trkpt lat="44.24367" lon="0.69773">
        <ele>145.3</ele>
        <time>2016-07-21T08:56:44Z</time>
      </trkpt>
      <trkpt lat="44.24355" lon="0.69771">
        <ele>143.37</ele>
        <time>2016-07-21T08:56:55Z</time>
      </trkpt>
      <trkpt lat="44.24344" lon="0.69768">
        <ele>141.93</ele>
        <time>2016-07-21T08:57:07Z</time>
      </trkpt>
      <trkpt lat="44.24331" lon="0.69768">
        <ele>140.49</ele>
        <time>2016-07-21T08:57:19Z</time>
      </trkpt>
      <trkpt lat="44.24319" lon="0.69766">
        <ele>139.53</ele>
        <time>2016-07-21T08:57:30Z</time>
      </trkpt>
      <trkpt lat="44.24309" lon="0.69767">
        <ele>137.61</ele>
        <time>2016-07-21T08:57:41Z</time>
      </trkpt>
      <trkpt lat="44.24298" lon="0.69769">
        <ele>136.16</ele>
        <time>2016-07-21T08:57:51Z</time>
      </trkpt>
      <trkpt lat="44.24289" lon="0.69776">
        <ele>135.2</ele>
        <time>2016-07-21T08:58:01Z</time>
      </trkpt>
      <trkpt lat="44.24279" lon="0.69784">
        <ele>133.76</ele>
        <time>2016-07-21T08:58:10Z</time>
      </trkpt>
      <trkpt lat="44.24271" lon="0.69793">
        <ele>131.84</ele>
        <time>2016-07-21T08:58:22Z</time>
      </trkpt>
      <trkpt lat="44.24264" lon="0.69802">
        <ele>130.4</ele>
        <time>2016-07-21T08:58:31Z</time>
      </trkpt>
      <trkpt lat="44.24256" lon="0.6981">
        <ele>129.43</ele>
        <time>2016-07-21T08:58:40Z</time>
      </trkpt>
      <trkpt lat="44.24247" lon="0.69817">
        <ele>127.03</ele>
        <time>2016-07-21T08:58:51Z</time>
      </trkpt>
      <trkpt lat="44.24239" lon="0.69825">
        <ele>124.63</ele>
        <time>2016-07-21T08:59:02Z</time>
      </trkpt>
      <trkpt lat="44.24228" lon="0.69833">
        <ele>122.71</ele>
        <time>2016-07-21T08:59:13Z</time>
      </trkpt>
      <trkpt lat="44.24219" lon="0.69841">
        <ele>120.3</ele>
        <time>2016-07-21T08:59:25Z</time>
      </trkpt>
      <trkpt lat="44.24211" lon="0.69851">
        <ele>118.86</ele>
        <time>2016-07-21T08:59:36Z</time>
      </trkpt>
      <trkpt lat="44.24202" lon="0.69859">
        <ele>117.42</ele>
        <time>2016-07-21T08:59:47Z</time>
      </trkpt>
      <trkpt lat="44.24193" lon="0.69868">
        <ele>115.98</ele>
        <time>2016-07-21T08:59:58Z</time>
      </trkpt>
      <trkpt lat="44.24184" lon="0.69877">
        <ele>114.53</ele>
        <time>2016-07-21T09:00:08Z</time>
      </trkpt>
      <trkpt lat="44.24174" lon="0.69884">
        <ele>112.61</ele>
        <time>2016-07-21T09:00:19Z</time>
      </trkpt>
      <trkpt lat="44.24163" lon="0.69894">
        <ele>111.65</ele>
        <time>2016-07-21T09:00:32Z</time>
      </trkpt>
      <trkpt lat="44.24154" lon="0.69902">
        <ele>110.21</ele>
        <time>2016-07-21T09:00:40Z</time>
      </trkpt>
      <trkpt lat="44.24146" lon="0.69912">
        <ele>108.77</ele>
        <time>2016-07-21T09:00:52Z</time>
      </trkpt>
      <trkpt lat="44.24136" lon="0.69921">
        <ele>107.81</ele>
        <time>2016-07-21T09:01:03Z</time>
      </trkpt>
      <trkpt lat="44.24126" lon="0.6993">
        <ele>106.36</ele>
        <time>2016-07-21T09:01:14Z</time>
      </trkpt>
      <trkpt lat="44.24116" lon="0.6994">
        <ele>104.92</ele>
        <time>2016-07-21T09:01:24Z</time>
      </trkpt>
      <trkpt lat="44.24106" lon="0.69949">
        <ele>103.96</ele>
        <time>2016-07-21T09:01:34Z</time>
      </trkpt>
      <trkpt lat="44.24096" lon="0.6996">
        <ele>102.52</ele>
        <time>2016-07-21T09:01:44Z</time>
      </trkpt>
      <trkpt lat="44.24087" lon="0.69969">
        <ele>101.56</ele>
        <time>2016-07-21T09:01:54Z</time>
      </trkpt>
      <trkpt lat="44.24075" lon="0.69977">
        <ele>100.6</ele>
        <time>2016-07-21T09:02:05Z</time>
      </trkpt>
      <trkpt lat="44.24065" lon="0.6998">
        <ele>99.63</ele>
        <time>2016-07-21T09:02:13Z</time>
      </trkpt>
      <trkpt lat="44.24053" lon="0.69982">
        <ele>98.67</ele>
        <time>2016-07-21T09:02:23Z</time>
      </trkpt>
      <trkpt lat="44.24043" lon="0.6998">
        <ele>97.71</ele>
        <time>2016-07-21T09:02:33Z</time>
      </trkpt>
      <trkpt lat="44.24034" lon="0.69981">
        <ele>96.75</ele>
        <time>2016-07-21T09:02:42Z</time>
      </trkpt>
      <trkpt lat="44.24023" lon="0.69978">
        <ele>95.31</ele>
        <time>2016-07-21T09:02:53Z</time>
      </trkpt>
      <trkpt lat="44.24012" lon="0.69976">
        <ele>94.35</ele>
        <time>2016-07-21T09:03:04Z</time>
      </trkpt>
      <trkpt lat="44.24" lon="0.69975">
        <ele>93.39</ele>
        <time>2016-07-21T09:03:13Z</time>
      </trkpt>
      <trkpt lat="44.23978" lon="0.69975">
        <ele>89.54</ele>
        <time>2016-07-21T09:03:38Z</time>
      </trkpt>
      <trkpt lat="44.23962" lon="0.69975">
        <ele>87.62</ele>
        <time>2016-07-21T09:03:53Z</time>
      </trkpt>
      <trkpt lat="44.2395" lon="0.69972">
        <ele>85.69</ele>
        <time>2016-07-21T09:04:04Z</time>
      </trkpt>
      <trkpt lat="44.23941" lon="0.69967">
        <ele>84.73</ele>
        <time>2016-07-21T09:04:15Z</time>
      </trkpt>
      <trkpt lat="44.23937" lon="0.69956">
        <ele>84.25</ele>
        <time>2016-07-21T09:04:24Z</time>
      </trkpt>
      <trkpt lat="44.23932" lon="0.69944">
        <ele>83.77</ele>
        <time>2016-07-21T09:04:34Z</time>
      </trkpt>
      <trkpt lat="44.23927" lon="0.6993">
        <ele>82.81</ele>
        <time>2016-07-21T09:04:44Z</time>
      </trkpt>
      <trkpt lat="44.23921" lon="0.69915">
        <ele>81.85</ele>
        <time>2016-07-21T09:04:54Z</time>
      </trkpt>
      <trkpt lat="44.23917" lon="0.69902">
        <ele>81.85</ele>
        <time>2016-07-21T09:05:01Z</time>
      </trkpt>
      <trkpt lat="44.23911" lon="0.6989">
        <ele>80.89</ele>
        <time>2016-07-21T09:05:10Z</time>
      </trkpt>
      <trkpt lat="44.23906" lon="0.69877">
        <ele>80.41</ele>
        <time>2016-07-21T09:05:19Z</time>
      </trkpt>
      <trkpt lat="44.23899" lon="0.69864">
        <ele>80.41</ele>
        <time>2016-07-21T09:05:29Z</time>
      </trkpt>
      <trkpt lat="44.23891" lon="0.69852">
        <ele>79.93</ele>
        <time>2016-07-21T09:05:38Z</time>
      </trkpt>
      <trkpt lat="44.23883" lon="0.69841">
        <ele>79.93</ele>
        <time>2016-07-21T09:05:50Z</time>
      </trkpt>
      <trkpt lat="44.23876" lon="0.69828">
        <ele>82.33</ele>
        <time>2016-07-21T09:06:01Z</time>
      </trkpt>
      <trkpt lat="44.2387" lon="0.69813">
        <ele>82.33</ele>
        <time>2016-07-21T09:06:13Z</time>
      </trkpt>
      <trkpt lat="44.23866" lon="0.69796">
        <ele>82.33</ele>
        <time>2016-07-21T09:06:24Z</time>
      </trkpt>
      <trkpt lat="44.23863" lon="0.6978">
        <ele>82.33</ele>
        <time>2016-07-21T09:06:34Z</time>
      </trkpt>
      <trkpt lat="44.2386" lon="0.69762">
        <ele>81.85</ele>
        <time>2016-07-21T09:06:45Z</time>
      </trkpt>
      <trkpt lat="44.23857" lon="0.69748">
        <ele>81.85</ele>
        <time>2016-07-21T09:06:55Z</time>
      </trkpt>
      <trkpt lat="44.2385" lon="0.69736">
        <ele>81.85</ele>
        <time>2016-07-21T09:07:06Z</time>
      </trkpt>
      <trkpt lat="44.23845" lon="0.69723">
        <ele>82.33</ele>
        <time>2016-07-21T09:07:17Z</time>
      </trkpt>
      <trkpt lat="44.23838" lon="0.69713">
        <ele>82.81</ele>
        <time>2016-07-21T09:07:28Z</time>
      </trkpt>
      <trkpt lat="44.23832" lon="0.69702">
        <ele>83.29</ele>
        <time>2016-07-21T09:07:40Z</time>
      </trkpt>
      <trkpt lat="44.23823" lon="0.69686">
        <ele>84.73</ele>
        <time>2016-07-21T09:07:56Z</time>
      </trkpt>
      <trkpt lat="44.23814" lon="0.69668">
        <ele>85.69</ele>
        <time>2016-07-21T09:08:12Z</time>
      </trkpt>
      <trkpt lat="44.23811" lon="0.69643">
        <ele>87.14</ele>
        <time>2016-07-21T09:08:33Z</time>
      </trkpt>
      <trkpt lat="44.23805" lon="0.69627">
        <ele>87.14</ele>
        <time>2016-07-21T09:08:46Z</time>
      </trkpt>
      <trkpt lat="44.238" lon="0.6959">
        <ele>85.21</ele>
        <time>2016-07-21T09:09:13Z</time>
      </trkpt>
      <trkpt lat="44.23795" lon="0.69576">
        <ele>84.73</ele>
        <time>2016-07-21T09:09:24Z</time>
      </trkpt>
      <trkpt lat="44.2379" lon="0.69563">
        <ele>84.73</ele>
        <time>2016-07-21T09:09:35Z</time>
      </trkpt>
      <trkpt lat="44.23784" lon="0.69553">
        <ele>86.18</ele>
        <time>2016-07-21T09:09:46Z</time>
      </trkpt>
      <trkpt lat="44.23775" lon="0.6954">
        <ele>86.18</ele>
        <time>2016-07-21T09:09:57Z</time>
      </trkpt>
      <trkpt lat="44.23765" lon="0.69529">
        <ele>86.66</ele>
        <time>2016-07-21T09:10:10Z</time>
      </trkpt>
      <trkpt lat="44.23755" lon="0.69518">
        <ele>87.62</ele>
        <time>2016-07-21T09:10:22Z</time>
      </trkpt>
      <trkpt lat="44.23749" lon="0.69508">
        <ele>88.1</ele>
        <time>2016-07-21T09:10:32Z</time>
      </trkpt>
      <trkpt lat="44.23742" lon="0.69496">
        <ele>88.58</ele>
        <time>2016-07-21T09:10:45Z</time>
      </trkpt>
      <trkpt lat="44.23735" lon="0.69485">
        <ele>89.06</ele>
        <time>2016-07-21T09:10:55Z</time>
      </trkpt>
      <trkpt lat="44.23729" lon="0.69475">
        <ele>89.06</ele>
        <time>2016-07-21T09:11:05Z</time>
      </trkpt>
      <trkpt lat="44.23724" lon="0.69465">
        <ele>89.06</ele>
        <time>2016-07-21T09:11:14Z</time>
      </trkpt>
      <trkpt lat="44.23719" lon="0.69452">
        <ele>89.06</ele>
        <time>2016-07-21T09:11:24Z</time>
      </trkpt>
      <trkpt lat="44.23715" lon="0.69439">
        <ele>90.02</ele>
        <time>2016-07-21T09:11:34Z</time>
      </trkpt>
      <trkpt lat="44.2371" lon="0.69427">
        <ele>90.02</ele>
        <time>2016-07-21T09:11:43Z</time>
      </trkpt>
      <trkpt lat="44.23706" lon="0.69412">
        <ele>90.02</ele>
        <time>2016-07-21T09:11:54Z</time>
      </trkpt>
      <trkpt lat="44.237" lon="0.69398">
        <ele>90.02</ele>
        <time>2016-07-21T09:12:05Z</time>
      </trkpt>
      <trkpt lat="44.23695" lon="0.69385">
        <ele>90.02</ele>
        <time>2016-07-21T09:12:15Z</time>
      </trkpt>
      <trkpt lat="44.23687" lon="0.69371">
        <ele>89.54</ele>
        <time>2016-07-21T09:12:27Z</time>
      </trkpt>
      <trkpt lat="44.23682" lon="0.69383">
        <ele>86.66</ele>
        <time>2016-07-21T09:12:53Z</time>
      </trkpt>
      <trkpt lat="44.23679" lon="0.69454">
        <ele>78</ele>
        <time>2016-07-21T09:14:07Z</time>
      </trkpt>
      <trkpt lat="44.2367" lon="0.69466">
        <ele>76.56</ele>
        <time>2016-07-21T09:14:22Z</time>
      </trkpt>
      <trkpt lat="44.23661" lon="0.69473">
        <ele>75.6</ele>
        <time>2016-07-21T09:14:34Z</time>
      </trkpt>
      <trkpt lat="44.23654" lon="0.69483">
        <ele>74.64</ele>
        <time>2016-07-21T09:14:45Z</time>
      </trkpt>
      <trkpt lat="44.23647" lon="0.69492">
        <ele>74.16</ele>
        <time>2016-07-21T09:14:55Z</time>
      </trkpt>
      <trkpt lat="44.2364" lon="0.69504">
        <ele>73.68</ele>
        <time>2016-07-21T09:15:06Z</time>
      </trkpt>
      <trkpt lat="44.23632" lon="0.69513">
        <ele>72.24</ele>
        <time>2016-07-21T09:15:17Z</time>
      </trkpt>
      <trkpt lat="44.23624" lon="0.69523">
        <ele>71.76</ele>
        <time>2016-07-21T09:15:27Z</time>
      </trkpt>
      <trkpt lat="44.23614" lon="0.6953">
        <ele>71.76</ele>
        <time>2016-07-21T09:16:26Z</time>
      </trkpt>
      <trkpt lat="44.23605" lon="0.69537">
        <ele>71.76</ele>
        <time>2016-07-21T09:16:36Z</time>
      </trkpt>
      <trkpt lat="44.23595" lon="0.69544">
        <ele>71.76</ele>
        <time>2016-07-21T09:16:48Z</time>
      </trkpt>
      <trkpt lat="44.23588" lon="0.69554">
        <ele>71.27</ele>
        <time>2016-07-21T09:16:57Z</time>
      </trkpt>
      <trkpt lat="44.23581" lon="0.69563">
        <ele>71.27</ele>
        <time>2016-07-21T09:17:06Z</time>
      </trkpt>
      <trkpt lat="44.23572" lon="0.6957">
        <ele>71.76</ele>
        <time>2016-07-21T09:17:15Z</time>
      </trkpt>
      <trkpt lat="44.23561" lon="0.69579">
        <ele>71.76</ele>
        <time>2016-07-21T09:17:26Z</time>
      </trkpt>
      <trkpt lat="44.23549" lon="0.69585">
        <ele>71.76</ele>
        <time>2016-07-21T09:17:35Z</time>
      </trkpt>
      <trkpt lat="44.23541" lon="0.69591">
        <ele>71.27</ele>
        <time>2016-07-21T09:17:43Z</time>
      </trkpt>
      <trkpt lat="44.23533" lon="0.69599">
        <ele>71.76</ele>
        <time>2016-07-21T09:17:53Z</time>
      </trkpt>
      <trkpt lat="44.23524" lon="0.69605">
        <ele>71.76</ele>
        <time>2016-07-21T09:18:02Z</time>
      </trkpt>
      <trkpt lat="44.23516" lon="0.69613">
        <ele>71.76</ele>
        <time>2016-07-21T09:18:11Z</time>
      </trkpt>
      <trkpt lat="44.23507" lon="0.6962">
        <ele>71.27</ele>
        <time>2016-07-21T09:18:19Z</time>
      </trkpt>
      <trkpt lat="44.235" lon="0.69626">
        <ele>71.27</ele>
        <time>2016-07-21T09:18:27Z</time>
      </trkpt>
      <trkpt lat="44.23491" lon="0.69633">
        <ele>71.27</ele>
        <time>2016-07-21T09:18:36Z</time>
      </trkpt>
      <trkpt lat="44.23481" lon="0.69634">
        <ele>71.27</ele>
        <time>2016-07-21T09:18:46Z</time>
      </trkpt>
      <trkpt lat="44.23471" lon="0.69634">
        <ele>71.27</ele>
        <time>2016-07-21T09:18:56Z</time>
      </trkpt>
      <trkpt lat="44.23464" lon="0.69629">
        <ele>71.27</ele>
        <time>2016-07-21T09:19:05Z</time>
      </trkpt>
      <trkpt lat="44.23461" lon="0.69618">
        <ele>71.27</ele>
        <time>2016-07-21T09:19:15Z</time>
      </trkpt>
      <trkpt lat="44.23462" lon="0.69604">
        <ele>71.27</ele>
        <time>2016-07-21T09:19:26Z</time>
      </trkpt>
      <trkpt lat="44.23461" lon="0.69589">
        <ele>71.27</ele>
        <time>2016-07-21T09:19:36Z</time>
      </trkpt>
      <trkpt lat="44.23462" lon="0.69573">
        <ele>71.27</ele>
        <time>2016-07-21T09:19:46Z</time>
      </trkpt>
      <trkpt lat="44.23461" lon="0.69558">
        <ele>71.27</ele>
        <time>2016-07-21T09:19:56Z</time>
      </trkpt>
      <trkpt lat="44.23461" lon="0.69545">
        <ele>71.27</ele>
        <time>2016-07-21T09:20:05Z</time>
      </trkpt>
      <trkpt lat="44.2346" lon="0.6953">
        <ele>71.27</ele>
        <time>2016-07-21T09:20:15Z</time>
      </trkpt>
      <trkpt lat="44.23459" lon="0.69516">
        <ele>70.79</ele>
        <time>2016-07-21T09:20:26Z</time>
      </trkpt>
      <trkpt lat="44.23453" lon="0.69504">
        <ele>70.79</ele>
        <time>2016-07-21T09:20:39Z</time>
      </trkpt>
      <trkpt lat="44.23447" lon="0.69491">
        <ele>70.79</ele>
        <time>2016-07-21T09:20:53Z</time>
      </trkpt>
      <trkpt lat="44.23439" lon="0.69479">
        <ele>71.76</ele>
        <time>2016-07-21T09:21:08Z</time>
      </trkpt>
      <trkpt lat="44.23431" lon="0.69461">
        <ele>71.76</ele>
        <time>2016-07-21T09:21:26Z</time>
      </trkpt>
      <trkpt lat="44.23423" lon="0.69448">
        <ele>71.76</ele>
        <time>2016-07-21T09:21:39Z</time>
      </trkpt>
      <trkpt lat="44.23416" lon="0.69435">
        <ele>71.76</ele>
        <time>2016-07-21T09:21:52Z</time>
      </trkpt>
      <trkpt lat="44.2341" lon="0.69422">
        <ele>71.76</ele>
        <time>2016-07-21T09:22:02Z</time>
      </trkpt>
      <trkpt lat="44.23405" lon="0.6941">
        <ele>71.76</ele>
        <time>2016-07-21T09:22:11Z</time>
      </trkpt>
      <trkpt lat="44.234" lon="0.69397">
        <ele>71.76</ele>
        <time>2016-07-21T09:22:22Z</time>
      </trkpt>
      <trkpt lat="44.23396" lon="0.69384">
        <ele>71.76</ele>
        <time>2016-07-21T09:22:32Z</time>
      </trkpt>
      <trkpt lat="44.23394" lon="0.69373">
        <ele>71.76</ele>
        <time>2016-07-21T09:22:44Z</time>
      </trkpt>
      <trkpt lat="44.23391" lon="0.6936">
        <ele>71.76</ele>
        <time>2016-07-21T09:22:56Z</time>
      </trkpt>
      <trkpt lat="44.23388" lon="0.69346">
        <ele>71.76</ele>
        <time>2016-07-21T09:23:08Z</time>
      </trkpt>
      <trkpt lat="44.23387" lon="0.69332">
        <ele>71.76</ele>
        <time>2016-07-21T09:23:18Z</time>
      </trkpt>
      <trkpt lat="44.23386" lon="0.69315">
        <ele>70.31</ele>
        <time>2016-07-21T09:23:32Z</time>
      </trkpt>
      <trkpt lat="44.23383" lon="0.69298">
        <ele>70.31</ele>
        <time>2016-07-21T09:23:49Z</time>
      </trkpt>
      <trkpt lat="44.23382" lon="0.69273">
        <ele>70.31</ele>
        <time>2016-07-21T09:24:08Z</time>
      </trkpt>
      <trkpt lat="44.23379" lon="0.69251">
        <ele>69.83</ele>
        <time>2016-07-21T09:24:25Z</time>
      </trkpt>
      <trkpt lat="44.23377" lon="0.69224">
        <ele>69.35</ele>
        <time>2016-07-21T09:24:51Z</time>
      </trkpt>
      <trkpt lat="44.2338" lon="0.69211">
        <ele>69.35</ele>
        <time>2016-07-21T09:25:02Z</time>
      </trkpt>
      <trkpt lat="44.2338" lon="0.69197">
        <ele>69.35</ele>
        <time>2016-07-21T09:25:13Z</time>
      </trkpt>
      <trkpt lat="44.23381" lon="0.69182">
        <ele>68.87</ele>
        <time>2016-07-21T09:25:25Z</time>
      </trkpt>
      <trkpt lat="44.23382" lon="0.69168">
        <ele>68.87</ele>
        <time>2016-07-21T09:25:36Z</time>
      </trkpt>
      <trkpt lat="44.23384" lon="0.69155">
        <ele>68.87</ele>
        <time>2016-07-21T09:25:47Z</time>
      </trkpt>
      <trkpt lat="44.23386" lon="0.69141">
        <ele>68.87</ele>
        <time>2016-07-21T09:25:57Z</time>
      </trkpt>
      <trkpt lat="44.23388" lon="0.69126">
        <ele>68.87</ele>
        <time>2016-07-21T09:26:10Z</time>
      </trkpt>
      <trkpt lat="44.2339" lon="0.69108">
        <ele>68.39</ele>
        <time>2016-07-21T09:26:21Z</time>
      </trkpt>
      <trkpt lat="44.23388" lon="0.69091">
        <ele>67.91</ele>
        <time>2016-07-21T09:26:36Z</time>
      </trkpt>
      <trkpt lat="44.23385" lon="0.69075">
        <ele>67.91</ele>
        <time>2016-07-21T09:26:48Z</time>
      </trkpt>
      <trkpt lat="44.23383" lon="0.69059">
        <ele>67.91</ele>
        <time>2016-07-21T09:27:01Z</time>
      </trkpt>
      <trkpt lat="44.23378" lon="0.69038">
        <ele>67.91</ele>
        <time>2016-07-21T09:27:19Z</time>
      </trkpt>
      <trkpt lat="44.23374" lon="0.69013">
        <ele>67.91</ele>
        <time>2016-07-21T09:27:36Z</time>
      </trkpt>
      <trkpt lat="44.23371" lon="0.68996">
        <ele>67.91</ele>
        <time>2016-07-21T09:27:49Z</time>
      </trkpt>
      <trkpt lat="44.23369" lon="0.68983">
        <ele>68.87</ele>
        <time>2016-07-21T09:28:01Z</time>
      </trkpt>
      <trkpt lat="44.23365" lon="0.68966">
        <ele>68.87</ele>
        <time>2016-07-21T09:28:15Z</time>
      </trkpt>
      <trkpt lat="44.23361" lon="0.6895">
        <ele>69.35</ele>
        <time>2016-07-21T09:28:29Z</time>
      </trkpt>
      <trkpt lat="44.23357" lon="0.68937">
        <ele>69.35</ele>
        <time>2016-07-21T09:28:44Z</time>
      </trkpt>
      <trkpt lat="44.23354" lon="0.68917">
        <ele>68.87</ele>
        <time>2016-07-21T09:28:59Z</time>
      </trkpt>
      <trkpt lat="44.23352" lon="0.68904">
        <ele>68.87</ele>
        <time>2016-07-21T09:29:11Z</time>
      </trkpt>
      <trkpt lat="44.23349" lon="0.68889">
        <ele>68.87</ele>
        <time>2016-07-21T09:29:23Z</time>
      </trkpt>
      <trkpt lat="44.23346" lon="0.68873">
        <ele>68.87</ele>
        <time>2016-07-21T09:29:34Z</time>
      </trkpt>
      <trkpt lat="44.23343" lon="0.68857">
        <ele>68.87</ele>
        <time>2016-07-21T09:29:46Z</time>
      </trkpt>
      <trkpt lat="44.23338" lon="0.68842">
        <ele>68.39</ele>
        <time>2016-07-21T09:29:58Z</time>
      </trkpt>
      <trkpt lat="44.23333" lon="0.68828">
        <ele>68.39</ele>
        <time>2016-07-21T09:30:10Z</time>
      </trkpt>
      <trkpt lat="44.2333" lon="0.68812">
        <ele>67.43</ele>
        <time>2016-07-21T09:30:22Z</time>
      </trkpt>
      <trkpt lat="44.23329" lon="0.68797">
        <ele>67.43</ele>
        <time>2016-07-21T09:30:33Z</time>
      </trkpt>
      <trkpt lat="44.23327" lon="0.68781">
        <ele>67.43</ele>
        <time>2016-07-21T09:30:46Z</time>
      </trkpt>
      <trkpt lat="44.23326" lon="0.68767">
        <ele>67.43</ele>
        <time>2016-07-21T09:30:56Z</time>
      </trkpt>
      <trkpt lat="44.23324" lon="0.68752">
        <ele>66.95</ele>
        <time>2016-07-21T09:31:08Z</time>
      </trkpt>
      <trkpt lat="44.23322" lon="0.68736">
        <ele>66.95</ele>
        <time>2016-07-21T09:31:21Z</time>
      </trkpt>
      <trkpt lat="44.2332" lon="0.68713">
        <ele>66.95</ele>
        <time>2016-07-21T09:31:37Z</time>
      </trkpt>
      <trkpt lat="44.23321" lon="0.68694">
        <ele>66.95</ele>
        <time>2016-07-21T09:31:51Z</time>
      </trkpt>
      <trkpt lat="44.23318" lon="0.68675">
        <ele>66.47</ele>
        <time>2016-07-21T09:32:09Z</time>
      </trkpt>
      <trkpt lat="44.23317" lon="0.68661">
        <ele>66.47</ele>
        <time>2016-07-21T09:32:20Z</time>
      </trkpt>
      <trkpt lat="44.23317" lon="0.68648">
        <ele>66.47</ele>
        <time>2016-07-21T09:32:30Z</time>
      </trkpt>
      <trkpt lat="44.23316" lon="0.68632">
        <ele>66.47</ele>
        <time>2016-07-21T09:32:42Z</time>
      </trkpt>
      <trkpt lat="44.23316" lon="0.68616">
        <ele>65.99</ele>
        <time>2016-07-21T09:32:54Z</time>
      </trkpt>
      <trkpt lat="44.23316" lon="0.68601">
        <ele>65.99</ele>
        <time>2016-07-21T09:33:04Z</time>
      </trkpt>
      <trkpt lat="44.23315" lon="0.68584">
        <ele>65.51</ele>
        <time>2016-07-21T09:33:15Z</time>
      </trkpt>
      <trkpt lat="44.23315" lon="0.6857">
        <ele>65.03</ele>
        <time>2016-07-21T09:33:23Z</time>
      </trkpt>
      <trkpt lat="44.23312" lon="0.68557">
        <ele>64.55</ele>
        <time>2016-07-21T09:33:32Z</time>
      </trkpt>
      <trkpt lat="44.23309" lon="0.68541">
        <ele>64.55</ele>
        <time>2016-07-21T09:33:44Z</time>
      </trkpt>
      <trkpt lat="44.23305" lon="0.68527">
        <ele>64.55</ele>
        <time>2016-07-21T09:33:54Z</time>
      </trkpt>
      <trkpt lat="44.233" lon="0.68513">
        <ele>64.55</ele>
        <time>2016-07-21T09:34:05Z</time>
      </trkpt>
      <trkpt lat="44.23297" lon="0.68499">
        <ele>64.55</ele>
        <time>2016-07-21T09:34:15Z</time>
      </trkpt>
      <trkpt lat="44.23293" lon="0.68485">
        <ele>64.07</ele>
        <time>2016-07-21T09:34:24Z</time>
      </trkpt>
      <trkpt lat="44.23289" lon="0.6847">
        <ele>64.07</ele>
        <time>2016-07-21T09:34:34Z</time>
      </trkpt>
      <trkpt lat="44.23287" lon="0.68456">
        <ele>64.07</ele>
        <time>2016-07-21T09:34:44Z</time>
      </trkpt>
      <trkpt lat="44.23283" lon="0.68444">
        <ele>64.07</ele>
        <time>2016-07-21T09:34:53Z</time>
      </trkpt>
      <trkpt lat="44.23279" lon="0.68431">
        <ele>64.07</ele>
        <time>2016-07-21T09:35:04Z</time>
      </trkpt>
      <trkpt lat="44.23277" lon="0.68418">
        <ele>64.07</ele>
        <time>2016-07-21T09:35:13Z</time>
      </trkpt>
      <trkpt lat="44.23274" lon="0.68404">
        <ele>63.58</ele>
        <time>2016-07-21T09:35:24Z</time>
      </trkpt>
      <trkpt lat="44.23272" lon="0.68391">
        <ele>63.58</ele>
        <time>2016-07-21T09:35:34Z</time>
      </trkpt>
      <trkpt lat="44.2327" lon="0.68377">
        <ele>63.58</ele>
        <time>2016-07-21T09:35:47Z</time>
      </trkpt>
      <trkpt lat="44.23268" lon="0.68364">
        <ele>63.58</ele>
        <time>2016-07-21T09:35:56Z</time>
      </trkpt>
      <trkpt lat="44.23268" lon="0.6835">
        <ele>63.58</ele>
        <time>2016-07-21T09:36:06Z</time>
      </trkpt>
      <trkpt lat="44.23265" lon="0.68338">
        <ele>63.1</ele>
        <time>2016-07-21T09:36:17Z</time>
      </trkpt>
      <trkpt lat="44.23263" lon="0.68321">
        <ele>63.1</ele>
        <time>2016-07-21T09:36:43Z</time>
      </trkpt>
      <trkpt lat="44.23265" lon="0.68309">
        <ele>63.1</ele>
        <time>2016-07-21T09:36:55Z</time>
      </trkpt>
      <trkpt lat="44.2327" lon="0.68296">
        <ele>63.1</ele>
        <time>2016-07-21T09:37:07Z</time>
      </trkpt>
      <trkpt lat="44.23268" lon="0.68272">
        <ele>63.1</ele>
        <time>2016-07-21T09:37:54Z</time>
      </trkpt>
      <trkpt lat="44.23268" lon="0.6828">
        <ele>62.62</ele>
        <time>2016-07-21T09:39:58Z</time>
      </trkpt>
      <trkpt lat="44.23267" lon="0.68291">
        <ele>64.07</ele>
        <time>2016-07-21T09:40:10Z</time>
      </trkpt>
      <trkpt lat="44.23262" lon="0.68307">
        <ele>64.07</ele>
        <time>2016-07-21T09:40:15Z</time>
      </trkpt>
      <trkpt lat="44.23261" lon="0.68323">
        <ele>64.07</ele>
        <time>2016-07-21T09:40:18Z</time>
      </trkpt>
      <trkpt lat="44.23263" lon="0.68338">
        <ele>64.07</ele>
        <time>2016-07-21T09:40:21Z</time>
      </trkpt>
      <trkpt lat="44.23266" lon="0.68355">
        <ele>64.07</ele>
        <time>2016-07-21T09:40:25Z</time>
      </trkpt>
      <trkpt lat="44.23266" lon="0.68369">
        <ele>65.03</ele>
        <time>2016-07-21T09:40:28Z</time>
      </trkpt>
      <trkpt lat="44.23257" lon="0.68377">
        <ele>65.03</ele>
        <time>2016-07-21T09:40:31Z</time>
      </trkpt>
      <trkpt lat="44.23247" lon="0.68374">
        <ele>65.51</ele>
        <time>2016-07-21T09:40:34Z</time>
      </trkpt>
      <trkpt lat="44.2324" lon="0.68358">
        <ele>65.99</ele>
        <time>2016-07-21T09:40:37Z</time>
      </trkpt>
      <trkpt lat="44.23234" lon="0.68344">
        <ele>66.95</ele>
        <time>2016-07-21T09:40:39Z</time>
      </trkpt>
      <trkpt lat="44.23229" lon="0.68328">
        <ele>66.95</ele>
        <time>2016-07-21T09:40:41Z</time>
      </trkpt>
      <trkpt lat="44.23225" lon="0.68308">
        <ele>66.95</ele>
        <time>2016-07-21T09:40:43Z</time>
      </trkpt>
      <trkpt lat="44.2322" lon="0.68287">
        <ele>66.95</ele>
        <time>2016-07-21T09:40:45Z</time>
      </trkpt>
      <trkpt lat="44.23215" lon="0.68265">
        <ele>66.95</ele>
        <time>2016-07-21T09:40:47Z</time>
      </trkpt>
      <trkpt lat="44.2321" lon="0.68246">
        <ele>66.95</ele>
        <time>2016-07-21T09:40:49Z</time>
      </trkpt>
      <trkpt lat="44.23206" lon="0.68231">
        <ele>65.51</ele>
        <time>2016-07-21T09:40:51Z</time>
      </trkpt>
      <trkpt lat="44.23202" lon="0.68218">
        <ele>65.51</ele>
        <time>2016-07-21T09:40:53Z</time>
      </trkpt>
      <trkpt lat="44.232" lon="0.68201">
        <ele>65.51</ele>
        <time>2016-07-21T09:40:56Z</time>
      </trkpt>
      <trkpt lat="44.23201" lon="0.68187">
        <ele>65.51</ele>
        <time>2016-07-21T09:40:59Z</time>
      </trkpt>
      <trkpt lat="44.23205" lon="0.68175">
        <ele>65.51</ele>
        <time>2016-07-21T09:41:03Z</time>
      </trkpt>
      <trkpt lat="44.23211" lon="0.68161">
        <ele>65.51</ele>
        <time>2016-07-21T09:41:29Z</time>
      </trkpt>
      <trkpt lat="44.23219" lon="0.68154">
        <ele>65.51</ele>
        <time>2016-07-21T09:41:34Z</time>
      </trkpt>
      <trkpt lat="44.2323" lon="0.68159">
        <ele>65.51</ele>
        <time>2016-07-21T09:41:37Z</time>
      </trkpt>
      <trkpt lat="44.23241" lon="0.68165">
        <ele>66.47</ele>
        <time>2016-07-21T09:41:39Z</time>
      </trkpt>
    </trkseg>
  </trk>
</gpx>